<?xml version="1.0" encoding="UTF-8" standalone="no" ?>
<gpx xmlns="http://www.topografix.com/GPX/1/1" xmlns:xsi="http://www.w3.org/2001/XMLSchema-instance" xsi:schemaLocation="http://www.topografix.com/GPX/1/1 http://www.topografix.com/GPX/1/1/gpx.xsd" version="1.1" creator="VisuGPX - https://www.visugpx.com">
  <metadata>
    <name>StHerblain_CarriereTougasIndre_11.4km</name>
    <desc><![CDATA[gnerando]]></desc>
  </metadata>
  <trk>
    <name><![CDATA[St-Herblain_CarriereEtTougasBasseIndre_12km]]></name>
    <extensions>
      <line xmlns="http://www.topografix.com/GPX/gpx_style/0/2">
        <color>004000</color>
        <width>5</width>
      </line>
    </extensions>
    <trkseg>
      <trkpt lat="47.21031" lon="-1.63455">
        <ele>12</ele>
        <time>2023-11-12T18:36:04Z</time>
      </trkpt>
      <trkpt lat="47.21026" lon="-1.63481">
        <ele>11</ele>
        <time>2023-11-12T18:36:28Z</time>
      </trkpt>
      <trkpt lat="47.2103" lon="-1.63508">
        <ele>10</ele>
        <time>2023-11-12T18:36:54Z</time>
      </trkpt>
      <trkpt lat="47.2105" lon="-1.63504">
        <ele>11</ele>
        <time>2023-11-12T18:37:20Z</time>
      </trkpt>
      <trkpt lat="47.21068" lon="-1.635">
        <ele>11</ele>
        <time>2023-11-12T18:37:45Z</time>
      </trkpt>
      <trkpt lat="47.21087" lon="-1.63502">
        <ele>11</ele>
        <time>2023-11-12T18:38:10Z</time>
      </trkpt>
      <trkpt lat="47.21095" lon="-1.63527">
        <ele>12</ele>
        <time>2023-11-12T18:38:35Z</time>
      </trkpt>
      <trkpt lat="47.21109" lon="-1.63546">
        <ele>12</ele>
        <time>2023-11-12T18:39:01Z</time>
      </trkpt>
      <trkpt lat="47.21126" lon="-1.63557">
        <ele>14</ele>
        <time>2023-11-12T18:39:25Z</time>
      </trkpt>
      <trkpt lat="47.21143" lon="-1.63573">
        <ele>15</ele>
        <time>2023-11-12T18:39:52Z</time>
      </trkpt>
      <trkpt lat="47.21154" lon="-1.63595">
        <ele>15</ele>
        <time>2023-11-12T18:40:17Z</time>
      </trkpt>
      <trkpt lat="47.21164" lon="-1.63618">
        <ele>15</ele>
        <time>2023-11-12T18:40:42Z</time>
      </trkpt>
      <trkpt lat="47.21171" lon="-1.63644">
        <ele>15</ele>
        <time>2023-11-12T18:41:07Z</time>
      </trkpt>
      <trkpt lat="47.21199" lon="-1.63683">
        <ele>18</ele>
        <time>2023-11-12T18:41:59Z</time>
      </trkpt>
      <trkpt lat="47.21213" lon="-1.637">
        <ele>21</ele>
        <time>2023-11-12T18:42:23Z</time>
      </trkpt>
      <trkpt lat="47.21222" lon="-1.63726">
        <ele>23</ele>
        <time>2023-11-12T18:42:49Z</time>
      </trkpt>
      <trkpt lat="47.21215" lon="-1.63751">
        <ele>23</ele>
        <time>2023-11-12T18:43:14Z</time>
      </trkpt>
      <trkpt lat="47.21201" lon="-1.63768">
        <ele>23</ele>
        <time>2023-11-12T18:43:38Z</time>
      </trkpt>
      <trkpt lat="47.21185" lon="-1.63781">
        <ele>22</ele>
        <time>2023-11-12T18:44:02Z</time>
      </trkpt>
      <trkpt lat="47.21169" lon="-1.63796">
        <ele>22</ele>
        <time>2023-11-12T18:44:28Z</time>
      </trkpt>
      <trkpt lat="47.21151" lon="-1.63808">
        <ele>21</ele>
        <time>2023-11-12T18:44:54Z</time>
      </trkpt>
      <trkpt lat="47.21135" lon="-1.63821">
        <ele>21</ele>
        <time>2023-11-12T18:45:19Z</time>
      </trkpt>
      <trkpt lat="47.21102" lon="-1.63847">
        <ele>21</ele>
        <time>2023-11-12T18:46:08Z</time>
      </trkpt>
      <trkpt lat="47.21085" lon="-1.63861">
        <ele>22</ele>
        <time>2023-11-12T18:46:34Z</time>
      </trkpt>
      <trkpt lat="47.21069" lon="-1.63879">
        <ele>22</ele>
        <time>2023-11-12T18:47:01Z</time>
      </trkpt>
      <trkpt lat="47.21051" lon="-1.63895">
        <ele>22</ele>
        <time>2023-11-12T18:47:29Z</time>
      </trkpt>
      <trkpt lat="47.21034" lon="-1.63906">
        <ele>22</ele>
        <time>2023-11-12T18:47:54Z</time>
      </trkpt>
      <trkpt lat="47.21016" lon="-1.63914">
        <ele>21</ele>
        <time>2023-11-12T18:48:19Z</time>
      </trkpt>
      <trkpt lat="47.21001" lon="-1.63927">
        <ele>20</ele>
        <time>2023-11-12T18:48:43Z</time>
      </trkpt>
      <trkpt lat="47.20984" lon="-1.63944">
        <ele>20</ele>
        <time>2023-11-12T18:49:10Z</time>
      </trkpt>
      <trkpt lat="47.20968" lon="-1.63957">
        <ele>20</ele>
        <time>2023-11-12T18:49:34Z</time>
      </trkpt>
      <trkpt lat="47.20948" lon="-1.63964">
        <ele>20</ele>
        <time>2023-11-12T18:50:02Z</time>
      </trkpt>
      <trkpt lat="47.2093" lon="-1.63955">
        <ele>19</ele>
        <time>2023-11-12T18:50:27Z</time>
      </trkpt>
      <trkpt lat="47.20918" lon="-1.63932">
        <ele>17</ele>
        <time>2023-11-12T18:50:53Z</time>
      </trkpt>
      <trkpt lat="47.20907" lon="-1.6391">
        <ele>16</ele>
        <time>2023-11-12T18:51:18Z</time>
      </trkpt>
      <trkpt lat="47.20892" lon="-1.63896">
        <ele>15</ele>
        <time>2023-11-12T18:51:42Z</time>
      </trkpt>
      <trkpt lat="47.20876" lon="-1.63879">
        <ele>15</ele>
        <time>2023-11-12T18:52:08Z</time>
      </trkpt>
      <trkpt lat="47.20867" lon="-1.63856">
        <ele>13</ele>
        <time>2023-11-12T18:52:32Z</time>
      </trkpt>
      <trkpt lat="47.20848" lon="-1.63844">
        <ele>14</ele>
        <time>2023-11-12T18:53:00Z</time>
      </trkpt>
      <trkpt lat="47.20827" lon="-1.63844">
        <ele>15</ele>
        <time>2023-11-12T18:53:28Z</time>
      </trkpt>
      <trkpt lat="47.20809" lon="-1.63854">
        <ele>15</ele>
        <time>2023-11-12T18:53:54Z</time>
      </trkpt>
      <trkpt lat="47.20789" lon="-1.63862">
        <ele>15</ele>
        <time>2023-11-12T18:54:21Z</time>
      </trkpt>
      <trkpt lat="47.2077" lon="-1.63872">
        <ele>15</ele>
        <time>2023-11-12T18:54:48Z</time>
      </trkpt>
      <trkpt lat="47.20753" lon="-1.63883">
        <ele>14</ele>
        <time>2023-11-12T18:55:13Z</time>
      </trkpt>
      <trkpt lat="47.20722" lon="-1.63914">
        <ele>14</ele>
        <time>2023-11-12T18:56:03Z</time>
      </trkpt>
      <trkpt lat="47.20706" lon="-1.63929">
        <ele>14</ele>
        <time>2023-11-12T18:56:28Z</time>
      </trkpt>
      <trkpt lat="47.20687" lon="-1.63943">
        <ele>13</ele>
        <time>2023-11-12T18:56:57Z</time>
      </trkpt>
      <trkpt lat="47.20668" lon="-1.63953">
        <ele>13</ele>
        <time>2023-11-12T18:57:24Z</time>
      </trkpt>
      <trkpt lat="47.20652" lon="-1.63963">
        <ele>13</ele>
        <time>2023-11-12T18:57:47Z</time>
      </trkpt>
      <trkpt lat="47.20634" lon="-1.63972">
        <ele>12</ele>
        <time>2023-11-12T18:58:12Z</time>
      </trkpt>
      <trkpt lat="47.20616" lon="-1.63981">
        <ele>12</ele>
        <time>2023-11-12T18:58:37Z</time>
      </trkpt>
      <trkpt lat="47.20598" lon="-1.63992">
        <ele>11</ele>
        <time>2023-11-12T18:59:03Z</time>
      </trkpt>
      <trkpt lat="47.2058" lon="-1.64001">
        <ele>11</ele>
        <time>2023-11-12T18:59:29Z</time>
      </trkpt>
      <trkpt lat="47.20561" lon="-1.64008">
        <ele>10</ele>
        <time>2023-11-12T18:59:55Z</time>
      </trkpt>
      <trkpt lat="47.20541" lon="-1.64012">
        <ele>9</ele>
        <time>2023-11-12T19:00:22Z</time>
      </trkpt>
      <trkpt lat="47.20521" lon="-1.64017">
        <ele>8</ele>
        <time>2023-11-12T19:00:49Z</time>
      </trkpt>
      <trkpt lat="47.20502" lon="-1.64024">
        <ele>7</ele>
        <time>2023-11-12T19:01:15Z</time>
      </trkpt>
      <trkpt lat="47.20485" lon="-1.64033">
        <ele>7</ele>
        <time>2023-11-12T19:01:39Z</time>
      </trkpt>
      <trkpt lat="47.20466" lon="-1.64044">
        <ele>6</ele>
        <time>2023-11-12T19:02:06Z</time>
      </trkpt>
      <trkpt lat="47.20452" lon="-1.64064">
        <ele>6</ele>
        <time>2023-11-12T19:02:33Z</time>
      </trkpt>
      <trkpt lat="47.20441" lon="-1.64086">
        <ele>6</ele>
        <time>2023-11-12T19:02:57Z</time>
      </trkpt>
      <trkpt lat="47.20433" lon="-1.64111">
        <ele>6</ele>
        <time>2023-11-12T19:03:22Z</time>
      </trkpt>
      <trkpt lat="47.20423" lon="-1.64136">
        <ele>6</ele>
        <time>2023-11-12T19:03:49Z</time>
      </trkpt>
      <trkpt lat="47.20409" lon="-1.64154">
        <ele>5</ele>
        <time>2023-11-12T19:04:13Z</time>
      </trkpt>
      <trkpt lat="47.20389" lon="-1.64157">
        <ele>5</ele>
        <time>2023-11-12T19:04:40Z</time>
      </trkpt>
      <trkpt lat="47.20372" lon="-1.64167">
        <ele>4</ele>
        <time>2023-11-12T19:05:05Z</time>
      </trkpt>
      <trkpt lat="47.20352" lon="-1.6418">
        <ele>3</ele>
        <time>2023-11-12T19:05:34Z</time>
      </trkpt>
      <trkpt lat="47.20334" lon="-1.64189">
        <ele>3</ele>
        <time>2023-11-12T19:05:59Z</time>
      </trkpt>
      <trkpt lat="47.20318" lon="-1.64205">
        <ele>2</ele>
        <time>2023-11-12T19:06:25Z</time>
      </trkpt>
      <trkpt lat="47.20313" lon="-1.64231">
        <ele>3</ele>
        <time>2023-11-12T19:06:50Z</time>
      </trkpt>
      <trkpt lat="47.20309" lon="-1.64261">
        <ele>3</ele>
        <time>2023-11-12T19:07:17Z</time>
      </trkpt>
      <trkpt lat="47.2031" lon="-1.64288">
        <ele>4</ele>
        <time>2023-11-12T19:07:42Z</time>
      </trkpt>
      <trkpt lat="47.20306" lon="-1.64316">
        <ele>4</ele>
        <time>2023-11-12T19:08:08Z</time>
      </trkpt>
      <trkpt lat="47.20296" lon="-1.6434">
        <ele>4</ele>
        <time>2023-11-12T19:08:33Z</time>
      </trkpt>
      <trkpt lat="47.20292" lon="-1.64367">
        <ele>4</ele>
        <time>2023-11-12T19:08:58Z</time>
      </trkpt>
      <trkpt lat="47.20284" lon="-1.64391">
        <ele>3</ele>
        <time>2023-11-12T19:09:23Z</time>
      </trkpt>
      <trkpt lat="47.20277" lon="-1.64421">
        <ele>3</ele>
        <time>2023-11-12T19:09:51Z</time>
      </trkpt>
      <trkpt lat="47.20269" lon="-1.64445">
        <ele>3</ele>
        <time>2023-11-12T19:10:16Z</time>
      </trkpt>
      <trkpt lat="47.20262" lon="-1.64472">
        <ele>2</ele>
        <time>2023-11-12T19:10:42Z</time>
      </trkpt>
      <trkpt lat="47.20255" lon="-1.64497">
        <ele>2</ele>
        <time>2023-11-12T19:11:06Z</time>
      </trkpt>
      <trkpt lat="47.20231" lon="-1.64576">
        <ele>1</ele>
        <time>2023-11-12T19:12:25Z</time>
      </trkpt>
      <trkpt lat="47.20222" lon="-1.64601">
        <ele>1</ele>
        <time>2023-11-12T19:12:50Z</time>
      </trkpt>
      <trkpt lat="47.20188" lon="-1.64631">
        <ele>2</ele>
        <time>2023-11-12T19:13:43Z</time>
      </trkpt>
      <trkpt lat="47.2017" lon="-1.64643">
        <ele>2</ele>
        <time>2023-11-12T19:14:10Z</time>
      </trkpt>
      <trkpt lat="47.20116" lon="-1.64668">
        <ele>8</ele>
        <time>2023-11-12T19:15:25Z</time>
      </trkpt>
      <trkpt lat="47.201" lon="-1.64681">
        <ele>10</ele>
        <time>2023-11-12T19:15:50Z</time>
      </trkpt>
      <trkpt lat="47.20102" lon="-1.64709">
        <ele>11</ele>
        <time>2023-11-12T19:16:15Z</time>
      </trkpt>
      <trkpt lat="47.20091" lon="-1.64731">
        <ele>13</ele>
        <time>2023-11-12T19:16:40Z</time>
      </trkpt>
      <trkpt lat="47.20088" lon="-1.64759">
        <ele>15</ele>
        <time>2023-11-12T19:17:06Z</time>
      </trkpt>
      <trkpt lat="47.20087" lon="-1.64786">
        <ele>15</ele>
        <time>2023-11-12T19:17:30Z</time>
      </trkpt>
      <trkpt lat="47.20087" lon="-1.64814">
        <ele>15</ele>
        <time>2023-11-12T19:17:55Z</time>
      </trkpt>
      <trkpt lat="47.20085" lon="-1.64842">
        <ele>16</ele>
        <time>2023-11-12T19:18:21Z</time>
      </trkpt>
      <trkpt lat="47.20088" lon="-1.64869">
        <ele>16</ele>
        <time>2023-11-12T19:18:46Z</time>
      </trkpt>
      <trkpt lat="47.20097" lon="-1.64895">
        <ele>15</ele>
        <time>2023-11-12T19:19:12Z</time>
      </trkpt>
      <trkpt lat="47.20116" lon="-1.64944">
        <ele>13</ele>
        <time>2023-11-12T19:20:03Z</time>
      </trkpt>
      <trkpt lat="47.20125" lon="-1.64969">
        <ele>12</ele>
        <time>2023-11-12T19:20:29Z</time>
      </trkpt>
      <trkpt lat="47.20138" lon="-1.65025">
        <ele>12</ele>
        <time>2023-11-12T19:21:23Z</time>
      </trkpt>
      <trkpt lat="47.20145" lon="-1.65052">
        <ele>13</ele>
        <time>2023-11-12T19:21:49Z</time>
      </trkpt>
      <trkpt lat="47.2015" lon="-1.65109">
        <ele>14</ele>
        <time>2023-11-12T19:22:41Z</time>
      </trkpt>
      <trkpt lat="47.20152" lon="-1.65137">
        <ele>14</ele>
        <time>2023-11-12T19:23:07Z</time>
      </trkpt>
      <trkpt lat="47.20154" lon="-1.65165">
        <ele>14</ele>
        <time>2023-11-12T19:23:32Z</time>
      </trkpt>
      <trkpt lat="47.20155" lon="-1.65192">
        <ele>15</ele>
        <time>2023-11-12T19:23:57Z</time>
      </trkpt>
      <trkpt lat="47.2015" lon="-1.65218">
        <ele>15</ele>
        <time>2023-11-12T19:24:21Z</time>
      </trkpt>
      <trkpt lat="47.20143" lon="-1.65243">
        <ele>16</ele>
        <time>2023-11-12T19:24:46Z</time>
      </trkpt>
      <trkpt lat="47.20148" lon="-1.6527">
        <ele>16</ele>
        <time>2023-11-12T19:25:11Z</time>
      </trkpt>
      <trkpt lat="47.2015" lon="-1.65298">
        <ele>16</ele>
        <time>2023-11-12T19:25:37Z</time>
      </trkpt>
      <trkpt lat="47.20155" lon="-1.65326">
        <ele>16</ele>
        <time>2023-11-12T19:26:03Z</time>
      </trkpt>
      <trkpt lat="47.20159" lon="-1.65353">
        <ele>17</ele>
        <time>2023-11-12T19:26:28Z</time>
      </trkpt>
      <trkpt lat="47.20169" lon="-1.65437">
        <ele>17</ele>
        <time>2023-11-12T19:27:45Z</time>
      </trkpt>
      <trkpt lat="47.20175" lon="-1.65464">
        <ele>16</ele>
        <time>2023-11-12T19:28:11Z</time>
      </trkpt>
      <trkpt lat="47.20171" lon="-1.65491">
        <ele>17</ele>
        <time>2023-11-12T19:28:36Z</time>
      </trkpt>
      <trkpt lat="47.20154" lon="-1.65484">
        <ele>17</ele>
        <time>2023-11-12T19:28:59Z</time>
      </trkpt>
      <trkpt lat="47.20116" lon="-1.65481">
        <ele>15</ele>
        <time>2023-11-12T19:29:50Z</time>
      </trkpt>
      <trkpt lat="47.20097" lon="-1.65477">
        <ele>14</ele>
        <time>2023-11-12T19:30:16Z</time>
      </trkpt>
      <trkpt lat="47.20081" lon="-1.65459">
        <ele>13</ele>
        <time>2023-11-12T19:30:43Z</time>
      </trkpt>
      <trkpt lat="47.20068" lon="-1.65438">
        <ele>12</ele>
        <time>2023-11-12T19:31:09Z</time>
      </trkpt>
      <trkpt lat="47.20049" lon="-1.65434">
        <ele>11</ele>
        <time>2023-11-12T19:31:34Z</time>
      </trkpt>
      <trkpt lat="47.20033" lon="-1.65419">
        <ele>9</ele>
        <time>2023-11-12T19:31:59Z</time>
      </trkpt>
      <trkpt lat="47.20027" lon="-1.65446">
        <ele>9</ele>
        <time>2023-11-12T19:32:25Z</time>
      </trkpt>
      <trkpt lat="47.20032" lon="-1.65475">
        <ele>10</ele>
        <time>2023-11-12T19:32:52Z</time>
      </trkpt>
      <trkpt lat="47.20038" lon="-1.65502">
        <ele>10</ele>
        <time>2023-11-12T19:33:18Z</time>
      </trkpt>
      <trkpt lat="47.20041" lon="-1.6553">
        <ele>10</ele>
        <time>2023-11-12T19:33:44Z</time>
      </trkpt>
      <trkpt lat="47.20045" lon="-1.65556">
        <ele>10</ele>
        <time>2023-11-12T19:34:08Z</time>
      </trkpt>
      <trkpt lat="47.20056" lon="-1.65612">
        <ele>10</ele>
        <time>2023-11-12T19:35:01Z</time>
      </trkpt>
      <trkpt lat="47.20062" lon="-1.6564">
        <ele>10</ele>
        <time>2023-11-12T19:35:27Z</time>
      </trkpt>
      <trkpt lat="47.2007" lon="-1.65697">
        <ele>9</ele>
        <time>2023-11-12T19:36:20Z</time>
      </trkpt>
      <trkpt lat="47.20073" lon="-1.65723">
        <ele>9</ele>
        <time>2023-11-12T19:36:44Z</time>
      </trkpt>
      <trkpt lat="47.20081" lon="-1.65751">
        <ele>9</ele>
        <time>2023-11-12T19:37:12Z</time>
      </trkpt>
      <trkpt lat="47.20086" lon="-1.65778">
        <ele>9</ele>
        <time>2023-11-12T19:37:37Z</time>
      </trkpt>
      <trkpt lat="47.20091" lon="-1.65807">
        <ele>8</ele>
        <time>2023-11-12T19:38:04Z</time>
      </trkpt>
      <trkpt lat="47.20095" lon="-1.65837">
        <ele>8</ele>
        <time>2023-11-12T19:38:32Z</time>
      </trkpt>
      <trkpt lat="47.201" lon="-1.65863">
        <ele>8</ele>
        <time>2023-11-12T19:38:56Z</time>
      </trkpt>
      <trkpt lat="47.20106" lon="-1.65892">
        <ele>8</ele>
        <time>2023-11-12T19:39:24Z</time>
      </trkpt>
      <trkpt lat="47.20109" lon="-1.65922">
        <ele>8</ele>
        <time>2023-11-12T19:39:51Z</time>
      </trkpt>
      <trkpt lat="47.20114" lon="-1.65948">
        <ele>8</ele>
        <time>2023-11-12T19:40:16Z</time>
      </trkpt>
      <trkpt lat="47.20121" lon="-1.66002">
        <ele>8</ele>
        <time>2023-11-12T19:41:06Z</time>
      </trkpt>
      <trkpt lat="47.20125" lon="-1.66028">
        <ele>9</ele>
        <time>2023-11-12T19:41:30Z</time>
      </trkpt>
      <trkpt lat="47.20129" lon="-1.66057">
        <ele>9</ele>
        <time>2023-11-12T19:41:57Z</time>
      </trkpt>
      <trkpt lat="47.20131" lon="-1.66085">
        <ele>9</ele>
        <time>2023-11-12T19:42:22Z</time>
      </trkpt>
      <trkpt lat="47.20134" lon="-1.66112">
        <ele>9</ele>
        <time>2023-11-12T19:42:47Z</time>
      </trkpt>
      <trkpt lat="47.20136" lon="-1.6617">
        <ele>9</ele>
        <time>2023-11-12T19:43:40Z</time>
      </trkpt>
      <trkpt lat="47.20138" lon="-1.66198">
        <ele>9</ele>
        <time>2023-11-12T19:44:05Z</time>
      </trkpt>
      <trkpt lat="47.20138" lon="-1.66254">
        <ele>8</ele>
        <time>2023-11-12T19:44:56Z</time>
      </trkpt>
      <trkpt lat="47.20139" lon="-1.66282">
        <ele>8</ele>
        <time>2023-11-12T19:45:21Z</time>
      </trkpt>
      <trkpt lat="47.20129" lon="-1.66305">
        <ele>7</ele>
        <time>2023-11-12T19:45:46Z</time>
      </trkpt>
      <trkpt lat="47.20089" lon="-1.66301">
        <ele>7</ele>
        <time>2023-11-12T19:46:40Z</time>
      </trkpt>
      <trkpt lat="47.20069" lon="-1.66321">
        <ele>7</ele>
        <time>2023-11-12T19:47:12Z</time>
      </trkpt>
      <trkpt lat="47.20047" lon="-1.66321">
        <ele>6</ele>
        <time>2023-11-12T19:47:41Z</time>
      </trkpt>
      <trkpt lat="47.20026" lon="-1.66317">
        <ele>6</ele>
        <time>2023-11-12T19:48:10Z</time>
      </trkpt>
      <trkpt lat="47.20024" lon="-1.66348">
        <ele>6</ele>
        <time>2023-11-12T19:48:38Z</time>
      </trkpt>
      <trkpt lat="47.20004" lon="-1.66355">
        <ele>6</ele>
        <time>2023-11-12T19:49:05Z</time>
      </trkpt>
      <trkpt lat="47.19985" lon="-1.66355">
        <ele>6</ele>
        <time>2023-11-12T19:49:31Z</time>
      </trkpt>
      <trkpt lat="47.19966" lon="-1.66353">
        <ele>6</ele>
        <time>2023-11-12T19:49:56Z</time>
      </trkpt>
      <trkpt lat="47.19946" lon="-1.66354">
        <ele>6</ele>
        <time>2023-11-12T19:50:23Z</time>
      </trkpt>
      <trkpt lat="47.19927" lon="-1.66352">
        <ele>6</ele>
        <time>2023-11-12T19:50:48Z</time>
      </trkpt>
      <trkpt lat="47.19908" lon="-1.66353">
        <ele>6</ele>
        <time>2023-11-12T19:51:13Z</time>
      </trkpt>
      <trkpt lat="47.19889" lon="-1.66347">
        <ele>6</ele>
        <time>2023-11-12T19:51:39Z</time>
      </trkpt>
      <trkpt lat="47.1987" lon="-1.66338">
        <ele>6</ele>
        <time>2023-11-12T19:52:06Z</time>
      </trkpt>
      <trkpt lat="47.19851" lon="-1.66329">
        <ele>6</ele>
        <time>2023-11-12T19:52:33Z</time>
      </trkpt>
      <trkpt lat="47.19833" lon="-1.66324">
        <ele>6</ele>
        <time>2023-11-12T19:52:57Z</time>
      </trkpt>
      <trkpt lat="47.19777" lon="-1.66299">
        <ele>5</ele>
        <time>2023-11-12T19:54:15Z</time>
      </trkpt>
      <trkpt lat="47.19762" lon="-1.66285">
        <ele>5</ele>
        <time>2023-11-12T19:54:39Z</time>
      </trkpt>
      <trkpt lat="47.19759" lon="-1.66311">
        <ele>4</ele>
        <time>2023-11-12T19:55:03Z</time>
      </trkpt>
      <trkpt lat="47.19755" lon="-1.66341">
        <ele>4</ele>
        <time>2023-11-12T19:55:31Z</time>
      </trkpt>
      <trkpt lat="47.19748" lon="-1.66427">
        <ele>6</ele>
        <time>2023-11-12T19:56:49Z</time>
      </trkpt>
      <trkpt lat="47.19749" lon="-1.66456">
        <ele>6</ele>
        <time>2023-11-12T19:57:15Z</time>
      </trkpt>
      <trkpt lat="47.19743" lon="-1.66484">
        <ele>6</ele>
        <time>2023-11-12T19:57:42Z</time>
      </trkpt>
      <trkpt lat="47.19739" lon="-1.66513">
        <ele>6</ele>
        <time>2023-11-12T19:58:09Z</time>
      </trkpt>
      <trkpt lat="47.19738" lon="-1.66541">
        <ele>6</ele>
        <time>2023-11-12T19:58:34Z</time>
      </trkpt>
      <trkpt lat="47.1974" lon="-1.66568">
        <ele>6</ele>
        <time>2023-11-12T19:58:59Z</time>
      </trkpt>
      <trkpt lat="47.19727" lon="-1.66589">
        <ele>6</ele>
        <time>2023-11-12T19:59:25Z</time>
      </trkpt>
      <trkpt lat="47.19709" lon="-1.66595">
        <ele>7</ele>
        <time>2023-11-12T19:59:49Z</time>
      </trkpt>
      <trkpt lat="47.19704" lon="-1.66622">
        <ele>8</ele>
        <time>2023-11-12T20:00:15Z</time>
      </trkpt>
      <trkpt lat="47.19698" lon="-1.66647">
        <ele>9</ele>
        <time>2023-11-12T20:00:39Z</time>
      </trkpt>
      <trkpt lat="47.19679" lon="-1.66651">
        <ele>10</ele>
        <time>2023-11-12T20:01:04Z</time>
      </trkpt>
      <trkpt lat="47.19664" lon="-1.66636">
        <ele>9</ele>
        <time>2023-11-12T20:01:29Z</time>
      </trkpt>
      <trkpt lat="47.19645" lon="-1.66634">
        <ele>9</ele>
        <time>2023-11-12T20:01:54Z</time>
      </trkpt>
      <trkpt lat="47.19635" lon="-1.66657">
        <ele>9</ele>
        <time>2023-11-12T20:02:19Z</time>
      </trkpt>
      <trkpt lat="47.1962" lon="-1.66676">
        <ele>10</ele>
        <time>2023-11-12T20:02:45Z</time>
      </trkpt>
      <trkpt lat="47.19613" lon="-1.66704">
        <ele>11</ele>
        <time>2023-11-12T20:03:12Z</time>
      </trkpt>
      <trkpt lat="47.19617" lon="-1.66732">
        <ele>13</ele>
        <time>2023-11-12T20:03:38Z</time>
      </trkpt>
      <trkpt lat="47.19622" lon="-1.66759">
        <ele>14</ele>
        <time>2023-11-12T20:04:04Z</time>
      </trkpt>
      <trkpt lat="47.19632" lon="-1.66782">
        <ele>15</ele>
        <time>2023-11-12T20:04:28Z</time>
      </trkpt>
      <trkpt lat="47.19643" lon="-1.66806">
        <ele>17</ele>
        <time>2023-11-12T20:04:55Z</time>
      </trkpt>
      <trkpt lat="47.19652" lon="-1.66832">
        <ele>18</ele>
        <time>2023-11-12T20:05:21Z</time>
      </trkpt>
      <trkpt lat="47.19663" lon="-1.66856">
        <ele>19</ele>
        <time>2023-11-12T20:05:47Z</time>
      </trkpt>
      <trkpt lat="47.19674" lon="-1.6688">
        <ele>19</ele>
        <time>2023-11-12T20:06:13Z</time>
      </trkpt>
      <trkpt lat="47.1969" lon="-1.66897">
        <ele>19</ele>
        <time>2023-11-12T20:06:40Z</time>
      </trkpt>
      <trkpt lat="47.19706" lon="-1.66911">
        <ele>20</ele>
        <time>2023-11-12T20:07:05Z</time>
      </trkpt>
      <trkpt lat="47.19716" lon="-1.66933">
        <ele>19</ele>
        <time>2023-11-12T20:07:29Z</time>
      </trkpt>
      <trkpt lat="47.197" lon="-1.66948">
        <ele>16</ele>
        <time>2023-11-12T20:07:54Z</time>
      </trkpt>
      <trkpt lat="47.19681" lon="-1.66954">
        <ele>13</ele>
        <time>2023-11-12T20:08:20Z</time>
      </trkpt>
      <trkpt lat="47.19662" lon="-1.66958">
        <ele>11</ele>
        <time>2023-11-12T20:08:46Z</time>
      </trkpt>
      <trkpt lat="47.19648" lon="-1.66977">
        <ele>7</ele>
        <time>2023-11-12T20:09:11Z</time>
      </trkpt>
      <trkpt lat="47.19652" lon="-1.67003">
        <ele>6</ele>
        <time>2023-11-12T20:09:35Z</time>
      </trkpt>
      <trkpt lat="47.1966" lon="-1.6703">
        <ele>5</ele>
        <time>2023-11-12T20:10:02Z</time>
      </trkpt>
      <trkpt lat="47.19667" lon="-1.67057">
        <ele>4</ele>
        <time>2023-11-12T20:10:28Z</time>
      </trkpt>
      <trkpt lat="47.19672" lon="-1.67084">
        <ele>2</ele>
        <time>2023-11-12T20:10:53Z</time>
      </trkpt>
      <trkpt lat="47.19674" lon="-1.67112">
        <ele>2</ele>
        <time>2023-11-12T20:11:19Z</time>
      </trkpt>
      <trkpt lat="47.19684" lon="-1.67136">
        <ele>2</ele>
        <time>2023-11-12T20:11:44Z</time>
      </trkpt>
      <trkpt lat="47.19699" lon="-1.67187">
        <ele>2</ele>
        <time>2023-11-12T20:12:35Z</time>
      </trkpt>
      <trkpt lat="47.19706" lon="-1.67214">
        <ele>2</ele>
        <time>2023-11-12T20:13:01Z</time>
      </trkpt>
      <trkpt lat="47.19716" lon="-1.67237">
        <ele>2</ele>
        <time>2023-11-12T20:13:26Z</time>
      </trkpt>
      <trkpt lat="47.19725" lon="-1.67262">
        <ele>2</ele>
        <time>2023-11-12T20:13:51Z</time>
      </trkpt>
      <trkpt lat="47.19737" lon="-1.67287">
        <ele>2</ele>
        <time>2023-11-12T20:14:19Z</time>
      </trkpt>
      <trkpt lat="47.19746" lon="-1.67313">
        <ele>1</ele>
        <time>2023-11-12T20:14:46Z</time>
      </trkpt>
      <trkpt lat="47.19765" lon="-1.67301">
        <ele>2</ele>
        <time>2023-11-12T20:15:13Z</time>
      </trkpt>
      <trkpt lat="47.19784" lon="-1.673">
        <ele>3</ele>
        <time>2023-11-12T20:15:39Z</time>
      </trkpt>
      <trkpt lat="47.19798" lon="-1.67317">
        <ele>4</ele>
        <time>2023-11-12T20:16:03Z</time>
      </trkpt>
      <trkpt lat="47.198" lon="-1.67343">
        <ele>3</ele>
        <time>2023-11-12T20:16:27Z</time>
      </trkpt>
      <trkpt lat="47.19804" lon="-1.67371">
        <ele>3</ele>
        <time>2023-11-12T20:16:53Z</time>
      </trkpt>
      <trkpt lat="47.19806" lon="-1.67401">
        <ele>3</ele>
        <time>2023-11-12T20:17:20Z</time>
      </trkpt>
      <trkpt lat="47.19808" lon="-1.67429">
        <ele>3</ele>
        <time>2023-11-12T20:17:45Z</time>
      </trkpt>
      <trkpt lat="47.1982" lon="-1.67409">
        <ele>3</ele>
        <time>2023-11-12T20:18:10Z</time>
      </trkpt>
      <trkpt lat="47.19813" lon="-1.67384">
        <ele>3</ele>
        <time>2023-11-12T20:18:34Z</time>
      </trkpt>
      <trkpt lat="47.19816" lon="-1.67355">
        <ele>4</ele>
        <time>2023-11-12T20:19:01Z</time>
      </trkpt>
      <trkpt lat="47.19821" lon="-1.67329">
        <ele>5</ele>
        <time>2023-11-12T20:19:25Z</time>
      </trkpt>
      <trkpt lat="47.19807" lon="-1.6731">
        <ele>4</ele>
        <time>2023-11-12T20:19:51Z</time>
      </trkpt>
      <trkpt lat="47.19809" lon="-1.67284">
        <ele>5</ele>
        <time>2023-11-12T20:20:14Z</time>
      </trkpt>
      <trkpt lat="47.19823" lon="-1.67267">
        <ele>6</ele>
        <time>2023-11-12T20:20:39Z</time>
      </trkpt>
      <trkpt lat="47.19836" lon="-1.6729">
        <ele>6</ele>
        <time>2023-11-12T20:21:06Z</time>
      </trkpt>
      <trkpt lat="47.1985" lon="-1.67308">
        <ele>7</ele>
        <time>2023-11-12T20:21:30Z</time>
      </trkpt>
      <trkpt lat="47.19868" lon="-1.67307">
        <ele>8</ele>
        <time>2023-11-12T20:21:55Z</time>
      </trkpt>
      <trkpt lat="47.19886" lon="-1.67293">
        <ele>9</ele>
        <time>2023-11-12T20:22:22Z</time>
      </trkpt>
      <trkpt lat="47.19897" lon="-1.67314">
        <ele>9</ele>
        <time>2023-11-12T20:22:46Z</time>
      </trkpt>
      <trkpt lat="47.19897" lon="-1.67343">
        <ele>9</ele>
        <time>2023-11-12T20:23:12Z</time>
      </trkpt>
      <trkpt lat="47.19903" lon="-1.6737">
        <ele>9</ele>
        <time>2023-11-12T20:23:38Z</time>
      </trkpt>
      <trkpt lat="47.19911" lon="-1.67393">
        <ele>9</ele>
        <time>2023-11-12T20:24:01Z</time>
      </trkpt>
      <trkpt lat="47.19921" lon="-1.67417">
        <ele>9</ele>
        <time>2023-11-12T20:24:27Z</time>
      </trkpt>
      <trkpt lat="47.19938" lon="-1.67427">
        <ele>10</ele>
        <time>2023-11-12T20:24:51Z</time>
      </trkpt>
      <trkpt lat="47.19957" lon="-1.67435">
        <ele>11</ele>
        <time>2023-11-12T20:25:18Z</time>
      </trkpt>
      <trkpt lat="47.19964" lon="-1.67462">
        <ele>11</ele>
        <time>2023-11-12T20:25:44Z</time>
      </trkpt>
      <trkpt lat="47.19967" lon="-1.67491">
        <ele>11</ele>
        <time>2023-11-12T20:26:10Z</time>
      </trkpt>
      <trkpt lat="47.19972" lon="-1.67518">
        <ele>11</ele>
        <time>2023-11-12T20:26:36Z</time>
      </trkpt>
      <trkpt lat="47.19982" lon="-1.67543">
        <ele>10</ele>
        <time>2023-11-12T20:27:02Z</time>
      </trkpt>
      <trkpt lat="47.19926" lon="-1.67599">
        <ele>4.2</ele>
      </trkpt>
      <trkpt lat="47.20127" lon="-1.67946">
        <ele>4.5</ele>
      </trkpt>
      <trkpt lat="47.20253" lon="-1.67844">
        <ele>7.9</ele>
      </trkpt>
      <trkpt lat="47.20192" lon="-1.67649">
        <ele>5.4</ele>
      </trkpt>
      <trkpt lat="47.20186" lon="-1.67483">
        <ele>5.1</ele>
        <time>2023-11-12T20:29:10Z</time>
      </trkpt>
      <trkpt lat="47.20332" lon="-1.67404">
        <ele>5</ele>
        <time>2023-11-12T20:29:34Z</time>
      </trkpt>
      <trkpt lat="47.20327" lon="-1.6737">
        <ele>5.6</ele>
      </trkpt>
      <trkpt lat="47.20286" lon="-1.67398">
        <ele>5.7</ele>
      </trkpt>
      <trkpt lat="47.20224" lon="-1.67274">
        <ele>6</ele>
      </trkpt>
      <trkpt lat="47.20194" lon="-1.67257">
        <ele>5.3</ele>
      </trkpt>
      <trkpt lat="47.20173" lon="-1.67296">
        <ele>5.2</ele>
      </trkpt>
      <trkpt lat="47.20098" lon="-1.67245">
        <ele>4.6</ele>
      </trkpt>
      <trkpt lat="47.20033" lon="-1.67283">
        <ele>4.6</ele>
      </trkpt>
      <trkpt lat="47.19951" lon="-1.67042">
        <ele>5</ele>
      </trkpt>
      <trkpt lat="47.19862" lon="-1.67128">
        <ele>13.9</ele>
      </trkpt>
      <trkpt lat="47.19832" lon="-1.67068">
        <ele>14</ele>
        <time>2023-11-12T20:36:25Z</time>
      </trkpt>
      <trkpt lat="47.19813" lon="-1.67055">
        <ele>14</ele>
        <time>2023-11-12T20:36:53Z</time>
      </trkpt>
      <trkpt lat="47.19794" lon="-1.67055">
        <ele>13</ele>
        <time>2023-11-12T20:37:19Z</time>
      </trkpt>
      <trkpt lat="47.19783" lon="-1.67031">
        <ele>14</ele>
        <time>2023-11-12T20:37:45Z</time>
      </trkpt>
      <trkpt lat="47.19774" lon="-1.67008">
        <ele>16</ele>
        <time>2023-11-12T20:38:09Z</time>
      </trkpt>
      <trkpt lat="47.19764" lon="-1.66987">
        <ele>17</ele>
        <time>2023-11-12T20:38:32Z</time>
      </trkpt>
      <trkpt lat="47.19753" lon="-1.66964">
        <ele>19</ele>
        <time>2023-11-12T20:38:58Z</time>
      </trkpt>
      <trkpt lat="47.19745" lon="-1.66939">
        <ele>21</ele>
        <time>2023-11-12T20:39:23Z</time>
      </trkpt>
      <trkpt lat="47.19733" lon="-1.66916">
        <ele>22</ele>
        <time>2023-11-12T20:39:49Z</time>
      </trkpt>
      <trkpt lat="47.19727" lon="-1.6689">
        <ele>22</ele>
        <time>2023-11-12T20:40:14Z</time>
      </trkpt>
      <trkpt lat="47.19731" lon="-1.66863">
        <ele>23</ele>
        <time>2023-11-12T20:40:39Z</time>
      </trkpt>
      <trkpt lat="47.19747" lon="-1.66846">
        <ele>24</ele>
        <time>2023-11-12T20:41:05Z</time>
      </trkpt>
      <trkpt lat="47.19758" lon="-1.66822">
        <ele>21</ele>
        <time>2023-11-12T20:41:32Z</time>
      </trkpt>
      <trkpt lat="47.19755" lon="-1.66794">
        <ele>19</ele>
        <time>2023-11-12T20:41:57Z</time>
      </trkpt>
      <trkpt lat="47.19751" lon="-1.66767">
        <ele>17</ele>
        <time>2023-11-12T20:42:22Z</time>
      </trkpt>
      <trkpt lat="47.19729" lon="-1.66724">
        <ele>14</ele>
        <time>2023-11-12T20:43:11Z</time>
      </trkpt>
      <trkpt lat="47.19717" lon="-1.66703">
        <ele>12</ele>
        <time>2023-11-12T20:43:36Z</time>
      </trkpt>
      <trkpt lat="47.19716" lon="-1.66674">
        <ele>9</ele>
        <time>2023-11-12T20:44:02Z</time>
      </trkpt>
      <trkpt lat="47.19712" lon="-1.66647">
        <ele>8</ele>
        <time>2023-11-12T20:44:27Z</time>
      </trkpt>
      <trkpt lat="47.19713" lon="-1.66621">
        <ele>7</ele>
        <time>2023-11-12T20:44:51Z</time>
      </trkpt>
      <trkpt lat="47.19714" lon="-1.66591">
        <ele>7</ele>
        <time>2023-11-12T20:45:18Z</time>
      </trkpt>
      <trkpt lat="47.19732" lon="-1.66583">
        <ele>6</ele>
        <time>2023-11-12T20:45:43Z</time>
      </trkpt>
      <trkpt lat="47.19749" lon="-1.66571">
        <ele>6</ele>
        <time>2023-11-12T20:46:08Z</time>
      </trkpt>
      <trkpt lat="47.19763" lon="-1.66553">
        <ele>6</ele>
        <time>2023-11-12T20:46:33Z</time>
      </trkpt>
      <trkpt lat="47.19782" lon="-1.66553">
        <ele>6</ele>
        <time>2023-11-12T20:46:59Z</time>
      </trkpt>
      <trkpt lat="47.19802" lon="-1.66559">
        <ele>5</ele>
        <time>2023-11-12T20:47:26Z</time>
      </trkpt>
      <trkpt lat="47.19823" lon="-1.66561">
        <ele>5</ele>
        <time>2023-11-12T20:47:54Z</time>
      </trkpt>
      <trkpt lat="47.19854" lon="-1.66598">
        <ele>5</ele>
        <time>2023-11-12T20:48:47Z</time>
      </trkpt>
      <trkpt lat="47.1987" lon="-1.66616">
        <ele>5</ele>
        <time>2023-11-12T20:49:14Z</time>
      </trkpt>
      <trkpt lat="47.19883" lon="-1.66635">
        <ele>5</ele>
        <time>2023-11-12T20:49:39Z</time>
      </trkpt>
      <trkpt lat="47.19898" lon="-1.66651">
        <ele>5</ele>
        <time>2023-11-12T20:50:03Z</time>
      </trkpt>
      <trkpt lat="47.19912" lon="-1.6667">
        <ele>5</ele>
        <time>2023-11-12T20:50:29Z</time>
      </trkpt>
      <trkpt lat="47.19926" lon="-1.66687">
        <ele>5</ele>
        <time>2023-11-12T20:50:53Z</time>
      </trkpt>
      <trkpt lat="47.19941" lon="-1.66707">
        <ele>5</ele>
        <time>2023-11-12T20:51:20Z</time>
      </trkpt>
      <trkpt lat="47.19972" lon="-1.66744">
        <ele>5</ele>
        <time>2023-11-12T20:52:13Z</time>
      </trkpt>
      <trkpt lat="47.19987" lon="-1.66762">
        <ele>5</ele>
        <time>2023-11-12T20:52:39Z</time>
      </trkpt>
      <trkpt lat="47.19999" lon="-1.66786">
        <ele>5</ele>
        <time>2023-11-12T20:53:06Z</time>
      </trkpt>
      <trkpt lat="47.20014" lon="-1.66806">
        <ele>5</ele>
        <time>2023-11-12T20:53:33Z</time>
      </trkpt>
      <trkpt lat="47.20031" lon="-1.66795">
        <ele>5</ele>
        <time>2023-11-12T20:53:58Z</time>
      </trkpt>
      <trkpt lat="47.20044" lon="-1.66773">
        <ele>5</ele>
        <time>2023-11-12T20:54:24Z</time>
      </trkpt>
      <trkpt lat="47.20062" lon="-1.66762">
        <ele>5</ele>
        <time>2023-11-12T20:54:50Z</time>
      </trkpt>
      <trkpt lat="47.2007" lon="-1.66738">
        <ele>5</ele>
        <time>2023-11-12T20:55:14Z</time>
      </trkpt>
      <trkpt lat="47.20073" lon="-1.66709">
        <ele>5</ele>
        <time>2023-11-12T20:55:41Z</time>
      </trkpt>
      <trkpt lat="47.20075" lon="-1.66626">
        <ele>7</ele>
        <time>2023-11-12T20:56:56Z</time>
      </trkpt>
      <trkpt lat="47.20077" lon="-1.66597">
        <ele>7</ele>
        <time>2023-11-12T20:57:23Z</time>
      </trkpt>
      <trkpt lat="47.20078" lon="-1.66568">
        <ele>8</ele>
        <time>2023-11-12T20:57:49Z</time>
      </trkpt>
      <trkpt lat="47.20076" lon="-1.66539">
        <ele>7</ele>
        <time>2023-11-12T20:58:16Z</time>
      </trkpt>
      <trkpt lat="47.20078" lon="-1.66511">
        <ele>7</ele>
        <time>2023-11-12T20:58:41Z</time>
      </trkpt>
      <trkpt lat="47.20079" lon="-1.66481">
        <ele>7</ele>
        <time>2023-11-12T20:59:08Z</time>
      </trkpt>
      <trkpt lat="47.20078" lon="-1.66452">
        <ele>7</ele>
        <time>2023-11-12T20:59:35Z</time>
      </trkpt>
      <trkpt lat="47.20069" lon="-1.66395">
        <ele>7</ele>
        <time>2023-11-12T21:00:28Z</time>
      </trkpt>
      <trkpt lat="47.20055" lon="-1.66376">
        <ele>7</ele>
        <time>2023-11-12T21:00:53Z</time>
      </trkpt>
      <trkpt lat="47.20036" lon="-1.66372">
        <ele>7</ele>
        <time>2023-11-12T21:01:19Z</time>
      </trkpt>
      <trkpt lat="47.20017" lon="-1.66373">
        <ele>6</ele>
        <time>2023-11-12T21:01:44Z</time>
      </trkpt>
      <trkpt lat="47.20001" lon="-1.66358">
        <ele>6</ele>
        <time>2023-11-12T21:02:09Z</time>
      </trkpt>
      <trkpt lat="47.20015" lon="-1.66341">
        <ele>6</ele>
        <time>2023-11-12T21:02:34Z</time>
      </trkpt>
      <trkpt lat="47.2002" lon="-1.66314">
        <ele>6</ele>
        <time>2023-11-12T21:02:59Z</time>
      </trkpt>
      <trkpt lat="47.20038" lon="-1.66316">
        <ele>6</ele>
        <time>2023-11-12T21:03:23Z</time>
      </trkpt>
      <trkpt lat="47.20057" lon="-1.66315">
        <ele>6</ele>
        <time>2023-11-12T21:03:48Z</time>
      </trkpt>
      <trkpt lat="47.20095" lon="-1.66308">
        <ele>7</ele>
        <time>2023-11-12T21:04:40Z</time>
      </trkpt>
      <trkpt lat="47.20129" lon="-1.6632">
        <ele>7</ele>
        <time>2023-11-12T21:05:26Z</time>
      </trkpt>
      <trkpt lat="47.20128" lon="-1.66284">
        <ele>7</ele>
        <time>2023-11-12T21:05:59Z</time>
      </trkpt>
      <trkpt lat="47.20147" lon="-1.66294">
        <ele>8</ele>
        <time>2023-11-12T21:06:26Z</time>
      </trkpt>
      <trkpt lat="47.20166" lon="-1.66286">
        <ele>8</ele>
        <time>2023-11-12T21:06:52Z</time>
      </trkpt>
      <trkpt lat="47.20184" lon="-1.66278">
        <ele>8</ele>
        <time>2023-11-12T21:07:17Z</time>
      </trkpt>
      <trkpt lat="47.20202" lon="-1.66267">
        <ele>8</ele>
        <time>2023-11-12T21:07:43Z</time>
      </trkpt>
      <trkpt lat="47.2022" lon="-1.66253">
        <ele>8</ele>
        <time>2023-11-12T21:08:10Z</time>
      </trkpt>
      <trkpt lat="47.20236" lon="-1.66235">
        <ele>8</ele>
        <time>2023-11-12T21:08:37Z</time>
      </trkpt>
      <trkpt lat="47.20249" lon="-1.66214">
        <ele>9</ele>
        <time>2023-11-12T21:09:03Z</time>
      </trkpt>
      <trkpt lat="47.20259" lon="-1.6619">
        <ele>9</ele>
        <time>2023-11-12T21:09:29Z</time>
      </trkpt>
      <trkpt lat="47.20268" lon="-1.66164">
        <ele>10</ele>
        <time>2023-11-12T21:09:55Z</time>
      </trkpt>
      <trkpt lat="47.20277" lon="-1.66138">
        <ele>10</ele>
        <time>2023-11-12T21:10:22Z</time>
      </trkpt>
      <trkpt lat="47.20291" lon="-1.66088">
        <ele>10</ele>
        <time>2023-11-12T21:11:11Z</time>
      </trkpt>
      <trkpt lat="47.203" lon="-1.66062">
        <ele>10</ele>
        <time>2023-11-12T21:11:37Z</time>
      </trkpt>
      <trkpt lat="47.2032" lon="-1.65981">
        <ele>9</ele>
        <time>2023-11-12T21:12:55Z</time>
      </trkpt>
      <trkpt lat="47.20326" lon="-1.65955">
        <ele>9</ele>
        <time>2023-11-12T21:13:20Z</time>
      </trkpt>
      <trkpt lat="47.2033" lon="-1.65927">
        <ele>9</ele>
        <time>2023-11-12T21:13:46Z</time>
      </trkpt>
      <trkpt lat="47.20334" lon="-1.65898">
        <ele>9</ele>
        <time>2023-11-12T21:14:13Z</time>
      </trkpt>
      <trkpt lat="47.20332" lon="-1.65869">
        <ele>9</ele>
        <time>2023-11-12T21:14:39Z</time>
      </trkpt>
      <trkpt lat="47.20331" lon="-1.65841">
        <ele>8</ele>
        <time>2023-11-12T21:15:05Z</time>
      </trkpt>
      <trkpt lat="47.20329" lon="-1.65814">
        <ele>9</ele>
        <time>2023-11-12T21:15:29Z</time>
      </trkpt>
      <trkpt lat="47.20325" lon="-1.65788">
        <ele>9</ele>
        <time>2023-11-12T21:15:53Z</time>
      </trkpt>
      <trkpt lat="47.20322" lon="-1.65759">
        <ele>9</ele>
        <time>2023-11-12T21:16:20Z</time>
      </trkpt>
      <trkpt lat="47.20311" lon="-1.65703">
        <ele>9</ele>
        <time>2023-11-12T21:17:13Z</time>
      </trkpt>
      <trkpt lat="47.20306" lon="-1.65675">
        <ele>9</ele>
        <time>2023-11-12T21:17:39Z</time>
      </trkpt>
      <trkpt lat="47.203" lon="-1.6565">
        <ele>9</ele>
        <time>2023-11-12T21:18:03Z</time>
      </trkpt>
      <trkpt lat="47.20294" lon="-1.65623">
        <ele>9</ele>
        <time>2023-11-12T21:18:29Z</time>
      </trkpt>
      <trkpt lat="47.20291" lon="-1.65596">
        <ele>8</ele>
        <time>2023-11-12T21:18:54Z</time>
      </trkpt>
      <trkpt lat="47.2028" lon="-1.65543">
        <ele>8</ele>
        <time>2023-11-12T21:19:44Z</time>
      </trkpt>
      <trkpt lat="47.20276" lon="-1.65517">
        <ele>8</ele>
        <time>2023-11-12T21:20:08Z</time>
      </trkpt>
      <trkpt lat="47.20274" lon="-1.6549">
        <ele>8</ele>
        <time>2023-11-12T21:20:33Z</time>
      </trkpt>
      <trkpt lat="47.20267" lon="-1.65464">
        <ele>8</ele>
        <time>2023-11-12T21:20:58Z</time>
      </trkpt>
      <trkpt lat="47.20263" lon="-1.65437">
        <ele>8</ele>
        <time>2023-11-12T21:21:23Z</time>
      </trkpt>
      <trkpt lat="47.20258" lon="-1.65409">
        <ele>7</ele>
        <time>2023-11-12T21:21:49Z</time>
      </trkpt>
      <trkpt lat="47.20254" lon="-1.65382">
        <ele>7</ele>
        <time>2023-11-12T21:22:15Z</time>
      </trkpt>
      <trkpt lat="47.20252" lon="-1.65354">
        <ele>7</ele>
        <time>2023-11-12T21:22:40Z</time>
      </trkpt>
      <trkpt lat="47.20247" lon="-1.65325">
        <ele>7</ele>
        <time>2023-11-12T21:23:07Z</time>
      </trkpt>
      <trkpt lat="47.20243" lon="-1.65297">
        <ele>8</ele>
        <time>2023-11-12T21:23:33Z</time>
      </trkpt>
      <trkpt lat="47.20238" lon="-1.65271">
        <ele>8</ele>
        <time>2023-11-12T21:23:58Z</time>
      </trkpt>
      <trkpt lat="47.20233" lon="-1.65242">
        <ele>9</ele>
        <time>2023-11-12T21:24:25Z</time>
      </trkpt>
      <trkpt lat="47.20231" lon="-1.65213">
        <ele>8</ele>
        <time>2023-11-12T21:24:51Z</time>
      </trkpt>
      <trkpt lat="47.20226" lon="-1.65186">
        <ele>8</ele>
        <time>2023-11-12T21:25:17Z</time>
      </trkpt>
      <trkpt lat="47.2022" lon="-1.65158">
        <ele>8</ele>
        <time>2023-11-12T21:25:43Z</time>
      </trkpt>
      <trkpt lat="47.20215" lon="-1.65131">
        <ele>8</ele>
        <time>2023-11-12T21:26:09Z</time>
      </trkpt>
      <trkpt lat="47.20212" lon="-1.65104">
        <ele>8</ele>
        <time>2023-11-12T21:26:33Z</time>
      </trkpt>
      <trkpt lat="47.20209" lon="-1.65075">
        <ele>8</ele>
        <time>2023-11-12T21:27:00Z</time>
      </trkpt>
      <trkpt lat="47.20198" lon="-1.65017">
        <ele>7</ele>
        <time>2023-11-12T21:27:55Z</time>
      </trkpt>
      <trkpt lat="47.2019" lon="-1.6499">
        <ele>7</ele>
        <time>2023-11-12T21:28:21Z</time>
      </trkpt>
      <trkpt lat="47.20186" lon="-1.64963">
        <ele>7</ele>
        <time>2023-11-12T21:28:46Z</time>
      </trkpt>
      <trkpt lat="47.20182" lon="-1.64933">
        <ele>7</ele>
        <time>2023-11-12T21:29:14Z</time>
      </trkpt>
      <trkpt lat="47.20176" lon="-1.64906">
        <ele>8</ele>
        <time>2023-11-12T21:29:40Z</time>
      </trkpt>
      <trkpt lat="47.20171" lon="-1.64878">
        <ele>8</ele>
        <time>2023-11-12T21:30:06Z</time>
      </trkpt>
      <trkpt lat="47.20164" lon="-1.6485">
        <ele>8</ele>
        <time>2023-11-12T21:30:33Z</time>
      </trkpt>
      <trkpt lat="47.2016" lon="-1.64823">
        <ele>8</ele>
        <time>2023-11-12T21:30:58Z</time>
      </trkpt>
      <trkpt lat="47.20154" lon="-1.64794">
        <ele>8</ele>
        <time>2023-11-12T21:31:26Z</time>
      </trkpt>
      <trkpt lat="47.20148" lon="-1.64767">
        <ele>8</ele>
        <time>2023-11-12T21:31:51Z</time>
      </trkpt>
      <trkpt lat="47.20132" lon="-1.64688">
        <ele>7</ele>
        <time>2023-11-12T21:33:06Z</time>
      </trkpt>
      <trkpt lat="47.20132" lon="-1.64661">
        <ele>6</ele>
        <time>2023-11-12T21:33:31Z</time>
      </trkpt>
      <trkpt lat="47.2015" lon="-1.64648">
        <ele>4</ele>
        <time>2023-11-12T21:33:57Z</time>
      </trkpt>
      <trkpt lat="47.20167" lon="-1.64637">
        <ele>2</ele>
        <time>2023-11-12T21:34:22Z</time>
      </trkpt>
      <trkpt lat="47.20186" lon="-1.64624">
        <ele>2</ele>
        <time>2023-11-12T21:34:50Z</time>
      </trkpt>
      <trkpt lat="47.20202" lon="-1.6461">
        <ele>2</ele>
        <time>2023-11-12T21:35:15Z</time>
      </trkpt>
      <trkpt lat="47.20219" lon="-1.64601">
        <ele>1</ele>
        <time>2023-11-12T21:35:39Z</time>
      </trkpt>
      <trkpt lat="47.2023" lon="-1.64579">
        <ele>1</ele>
        <time>2023-11-12T21:36:04Z</time>
      </trkpt>
      <trkpt lat="47.20236" lon="-1.64554">
        <ele>1</ele>
        <time>2023-11-12T21:36:28Z</time>
      </trkpt>
      <trkpt lat="47.20244" lon="-1.64527">
        <ele>2</ele>
        <time>2023-11-12T21:36:55Z</time>
      </trkpt>
      <trkpt lat="47.20253" lon="-1.645">
        <ele>2</ele>
        <time>2023-11-12T21:37:22Z</time>
      </trkpt>
      <trkpt lat="47.20261" lon="-1.64476">
        <ele>2</ele>
        <time>2023-11-12T21:37:46Z</time>
      </trkpt>
      <trkpt lat="47.20267" lon="-1.64446">
        <ele>2</ele>
        <time>2023-11-12T21:38:14Z</time>
      </trkpt>
      <trkpt lat="47.20275" lon="-1.6442">
        <ele>3</ele>
        <time>2023-11-12T21:38:40Z</time>
      </trkpt>
      <trkpt lat="47.20282" lon="-1.64392">
        <ele>3</ele>
        <time>2023-11-12T21:39:07Z</time>
      </trkpt>
      <trkpt lat="47.20288" lon="-1.64364">
        <ele>3</ele>
        <time>2023-11-12T21:39:34Z</time>
      </trkpt>
      <trkpt lat="47.20297" lon="-1.64337">
        <ele>4</ele>
        <time>2023-11-12T21:40:01Z</time>
      </trkpt>
      <trkpt lat="47.20306" lon="-1.6431">
        <ele>4</ele>
        <time>2023-11-12T21:40:28Z</time>
      </trkpt>
      <trkpt lat="47.20319" lon="-1.64288">
        <ele>4</ele>
        <time>2023-11-12T21:40:55Z</time>
      </trkpt>
      <trkpt lat="47.20335" lon="-1.64277">
        <ele>4</ele>
        <time>2023-11-12T21:41:18Z</time>
      </trkpt>
      <trkpt lat="47.20376" lon="-1.64268">
        <ele>8</ele>
        <time>2023-11-12T21:42:14Z</time>
      </trkpt>
      <trkpt lat="47.20396" lon="-1.64264">
        <ele>10</ele>
        <time>2023-11-12T21:42:41Z</time>
      </trkpt>
      <trkpt lat="47.20401" lon="-1.64238">
        <ele>10</ele>
        <time>2023-11-12T21:43:05Z</time>
      </trkpt>
      <trkpt lat="47.20398" lon="-1.64209">
        <ele>8</ele>
        <time>2023-11-12T21:43:32Z</time>
      </trkpt>
      <trkpt lat="47.20397" lon="-1.64179">
        <ele>6</ele>
        <time>2023-11-12T21:43:59Z</time>
      </trkpt>
      <trkpt lat="47.20406" lon="-1.64152">
        <ele>5</ele>
        <time>2023-11-12T21:44:26Z</time>
      </trkpt>
      <trkpt lat="47.2042" lon="-1.64135">
        <ele>6</ele>
        <time>2023-11-12T21:44:51Z</time>
      </trkpt>
      <trkpt lat="47.20431" lon="-1.64112">
        <ele>6</ele>
        <time>2023-11-12T21:45:16Z</time>
      </trkpt>
      <trkpt lat="47.20442" lon="-1.64087">
        <ele>6</ele>
        <time>2023-11-12T21:45:43Z</time>
      </trkpt>
      <trkpt lat="47.20452" lon="-1.64063">
        <ele>6</ele>
        <time>2023-11-12T21:46:09Z</time>
      </trkpt>
      <trkpt lat="47.20465" lon="-1.64045">
        <ele>6</ele>
        <time>2023-11-12T21:46:32Z</time>
      </trkpt>
      <trkpt lat="47.20477" lon="-1.64025">
        <ele>6</ele>
        <time>2023-11-12T21:46:57Z</time>
      </trkpt>
      <trkpt lat="47.20496" lon="-1.64018">
        <ele>7</ele>
        <time>2023-11-12T21:47:23Z</time>
      </trkpt>
      <trkpt lat="47.20517" lon="-1.64014">
        <ele>8</ele>
        <time>2023-11-12T21:47:51Z</time>
      </trkpt>
      <trkpt lat="47.20535" lon="-1.64008">
        <ele>9</ele>
        <time>2023-11-12T21:48:16Z</time>
      </trkpt>
      <trkpt lat="47.20554" lon="-1.64005">
        <ele>10</ele>
        <time>2023-11-12T21:48:41Z</time>
      </trkpt>
      <trkpt lat="47.20572" lon="-1.64">
        <ele>10</ele>
        <time>2023-11-12T21:49:06Z</time>
      </trkpt>
      <trkpt lat="47.2059" lon="-1.6399">
        <ele>11</ele>
        <time>2023-11-12T21:49:31Z</time>
      </trkpt>
      <trkpt lat="47.20607" lon="-1.63977">
        <ele>11</ele>
        <time>2023-11-12T21:49:57Z</time>
      </trkpt>
      <trkpt lat="47.20624" lon="-1.63964">
        <ele>12</ele>
        <time>2023-11-12T21:50:22Z</time>
      </trkpt>
      <trkpt lat="47.20639" lon="-1.63945">
        <ele>12</ele>
        <time>2023-11-12T21:50:49Z</time>
      </trkpt>
      <trkpt lat="47.20651" lon="-1.63925">
        <ele>12</ele>
        <time>2023-11-12T21:51:13Z</time>
      </trkpt>
      <trkpt lat="47.2064" lon="-1.63949">
        <ele>12</ele>
        <time>2023-11-12T21:51:39Z</time>
      </trkpt>
      <trkpt lat="47.20626" lon="-1.63966">
        <ele>12</ele>
        <time>2023-11-12T21:52:03Z</time>
      </trkpt>
      <trkpt lat="47.20646" lon="-1.63962">
        <ele>12</ele>
        <time>2023-11-12T21:52:30Z</time>
      </trkpt>
      <trkpt lat="47.20665" lon="-1.63953">
        <ele>13</ele>
        <time>2023-11-12T21:52:57Z</time>
      </trkpt>
      <trkpt lat="47.20676" lon="-1.63932">
        <ele>13</ele>
        <time>2023-11-12T21:53:21Z</time>
      </trkpt>
      <trkpt lat="47.20676" lon="-1.63901">
        <ele>12</ele>
        <time>2023-11-12T21:53:49Z</time>
      </trkpt>
      <trkpt lat="47.20672" lon="-1.63874">
        <ele>11</ele>
        <time>2023-11-12T21:54:14Z</time>
      </trkpt>
      <trkpt lat="47.2067" lon="-1.63847">
        <ele>10</ele>
        <time>2023-11-12T21:54:39Z</time>
      </trkpt>
      <trkpt lat="47.20676" lon="-1.63822">
        <ele>9</ele>
        <time>2023-11-12T21:55:03Z</time>
      </trkpt>
      <trkpt lat="47.20686" lon="-1.63796">
        <ele>8</ele>
        <time>2023-11-12T21:55:30Z</time>
      </trkpt>
      <trkpt lat="47.20699" lon="-1.63776">
        <ele>8</ele>
        <time>2023-11-12T21:55:55Z</time>
      </trkpt>
      <trkpt lat="47.20716" lon="-1.63764">
        <ele>8</ele>
        <time>2023-11-12T21:56:20Z</time>
      </trkpt>
      <trkpt lat="47.20737" lon="-1.63761">
        <ele>8</ele>
        <time>2023-11-12T21:56:48Z</time>
      </trkpt>
      <trkpt lat="47.20755" lon="-1.63759">
        <ele>8</ele>
        <time>2023-11-12T21:57:12Z</time>
      </trkpt>
      <trkpt lat="47.20773" lon="-1.63749">
        <ele>8</ele>
        <time>2023-11-12T21:57:38Z</time>
      </trkpt>
      <trkpt lat="47.20789" lon="-1.63737">
        <ele>7</ele>
        <time>2023-11-12T21:58:02Z</time>
      </trkpt>
      <trkpt lat="47.20787" lon="-1.63705">
        <ele>6</ele>
        <time>2023-11-12T21:58:31Z</time>
      </trkpt>
      <trkpt lat="47.20783" lon="-1.63677">
        <ele>6</ele>
        <time>2023-11-12T21:58:57Z</time>
      </trkpt>
      <trkpt lat="47.20795" lon="-1.63656">
        <ele>6</ele>
        <time>2023-11-12T21:59:22Z</time>
      </trkpt>
      <trkpt lat="47.20813" lon="-1.63651">
        <ele>6</ele>
        <time>2023-11-12T21:59:46Z</time>
      </trkpt>
      <trkpt lat="47.20827" lon="-1.63631">
        <ele>7</ele>
        <time>2023-11-12T22:00:12Z</time>
      </trkpt>
      <trkpt lat="47.20843" lon="-1.63616">
        <ele>7</ele>
        <time>2023-11-12T22:00:38Z</time>
      </trkpt>
      <trkpt lat="47.2086" lon="-1.63604">
        <ele>7</ele>
        <time>2023-11-12T22:01:03Z</time>
      </trkpt>
      <trkpt lat="47.20874" lon="-1.63585">
        <ele>8</ele>
        <time>2023-11-12T22:01:28Z</time>
      </trkpt>
      <trkpt lat="47.20891" lon="-1.63567">
        <ele>9</ele>
        <time>2023-11-12T22:01:56Z</time>
      </trkpt>
      <trkpt lat="47.20905" lon="-1.63548">
        <ele>10</ele>
        <time>2023-11-12T22:02:22Z</time>
      </trkpt>
      <trkpt lat="47.20922" lon="-1.63533">
        <ele>11</ele>
        <time>2023-11-12T22:02:48Z</time>
      </trkpt>
      <trkpt lat="47.20961" lon="-1.6352">
        <ele>10</ele>
        <time>2023-11-12T22:03:42Z</time>
      </trkpt>
      <trkpt lat="47.20979" lon="-1.63511">
        <ele>10</ele>
        <time>2023-11-12T22:04:07Z</time>
      </trkpt>
      <trkpt lat="47.20992" lon="-1.63492">
        <ele>11</ele>
        <time>2023-11-12T22:04:31Z</time>
      </trkpt>
      <trkpt lat="47.21006" lon="-1.63474">
        <ele>12</ele>
        <time>2023-11-12T22:04:56Z</time>
      </trkpt>
      <trkpt lat="47.21019" lon="-1.63451">
        <ele>13</ele>
        <time>2023-11-12T22:05:23Z</time>
        <extensions>
          <visugpx:TrkExtension xmlns:visugpx="https://www.visugpx.com/editgpx/">
            <visugpx:node>1</visugpx:node>
            </visugpx:TrkExtension>
        </extensions>
      </trkpt>
    </trkseg>
  </trk>
  <trk>
    <name><![CDATA[St-Herblain_CarriereEtTougasBasseIndre_11.5km]]></name>
    <extensions>
      <line xmlns="http://www.topografix.com/GPX/gpx_style/0/2">
        <color>0000ff</color>
        <opacity>0.75</opacity>
        <width>5</width>
      </line>
    </extensions>
    <trkseg>
      <trkpt lat="47.21031" lon="-1.63455">
        <ele>12</ele>
        <time>2023-11-12T18:36:04Z</time>
      </trkpt>
      <trkpt lat="47.21026" lon="-1.63481">
        <ele>11</ele>
        <time>2023-11-12T18:36:28Z</time>
      </trkpt>
      <trkpt lat="47.2103" lon="-1.63508">
        <ele>10</ele>
        <time>2023-11-12T18:36:54Z</time>
      </trkpt>
      <trkpt lat="47.2105" lon="-1.63504">
        <ele>11</ele>
        <time>2023-11-12T18:37:20Z</time>
      </trkpt>
      <trkpt lat="47.21068" lon="-1.635">
        <ele>11</ele>
        <time>2023-11-12T18:37:45Z</time>
      </trkpt>
      <trkpt lat="47.21087" lon="-1.63502">
        <ele>11</ele>
        <time>2023-11-12T18:38:10Z</time>
      </trkpt>
      <trkpt lat="47.21095" lon="-1.63527">
        <ele>12</ele>
        <time>2023-11-12T18:38:35Z</time>
      </trkpt>
      <trkpt lat="47.21109" lon="-1.63546">
        <ele>12</ele>
        <time>2023-11-12T18:39:01Z</time>
      </trkpt>
      <trkpt lat="47.21126" lon="-1.63557">
        <ele>14</ele>
        <time>2023-11-12T18:39:25Z</time>
      </trkpt>
      <trkpt lat="47.21143" lon="-1.63573">
        <ele>15</ele>
        <time>2023-11-12T18:39:52Z</time>
      </trkpt>
      <trkpt lat="47.21154" lon="-1.63595">
        <ele>15</ele>
        <time>2023-11-12T18:40:17Z</time>
      </trkpt>
      <trkpt lat="47.21164" lon="-1.63618">
        <ele>15</ele>
        <time>2023-11-12T18:40:42Z</time>
      </trkpt>
      <trkpt lat="47.21171" lon="-1.63644">
        <ele>15</ele>
        <time>2023-11-12T18:41:07Z</time>
      </trkpt>
      <trkpt lat="47.21199" lon="-1.63683">
        <ele>18</ele>
        <time>2023-11-12T18:41:59Z</time>
      </trkpt>
      <trkpt lat="47.21213" lon="-1.637">
        <ele>21</ele>
        <time>2023-11-12T18:42:23Z</time>
      </trkpt>
      <trkpt lat="47.21222" lon="-1.63726">
        <ele>23</ele>
        <time>2023-11-12T18:42:49Z</time>
      </trkpt>
      <trkpt lat="47.21215" lon="-1.63751">
        <ele>23</ele>
        <time>2023-11-12T18:43:14Z</time>
      </trkpt>
      <trkpt lat="47.21201" lon="-1.63768">
        <ele>23</ele>
        <time>2023-11-12T18:43:38Z</time>
      </trkpt>
      <trkpt lat="47.21185" lon="-1.63781">
        <ele>22</ele>
        <time>2023-11-12T18:44:02Z</time>
      </trkpt>
      <trkpt lat="47.21169" lon="-1.63796">
        <ele>22</ele>
        <time>2023-11-12T18:44:28Z</time>
      </trkpt>
      <trkpt lat="47.21151" lon="-1.63808">
        <ele>21</ele>
        <time>2023-11-12T18:44:54Z</time>
      </trkpt>
      <trkpt lat="47.21135" lon="-1.63821">
        <ele>21</ele>
        <time>2023-11-12T18:45:19Z</time>
      </trkpt>
      <trkpt lat="47.21102" lon="-1.63847">
        <ele>21</ele>
        <time>2023-11-12T18:46:08Z</time>
      </trkpt>
      <trkpt lat="47.21085" lon="-1.63861">
        <ele>22</ele>
        <time>2023-11-12T18:46:34Z</time>
      </trkpt>
      <trkpt lat="47.21069" lon="-1.63879">
        <ele>22</ele>
        <time>2023-11-12T18:47:01Z</time>
      </trkpt>
      <trkpt lat="47.21051" lon="-1.63895">
        <ele>22</ele>
        <time>2023-11-12T18:47:29Z</time>
      </trkpt>
      <trkpt lat="47.21034" lon="-1.63906">
        <ele>22</ele>
        <time>2023-11-12T18:47:54Z</time>
      </trkpt>
      <trkpt lat="47.21016" lon="-1.63914">
        <ele>21</ele>
        <time>2023-11-12T18:48:19Z</time>
      </trkpt>
      <trkpt lat="47.21001" lon="-1.63927">
        <ele>20</ele>
        <time>2023-11-12T18:48:43Z</time>
      </trkpt>
      <trkpt lat="47.20984" lon="-1.63944">
        <ele>20</ele>
        <time>2023-11-12T18:49:10Z</time>
      </trkpt>
      <trkpt lat="47.20968" lon="-1.63957">
        <ele>20</ele>
        <time>2023-11-12T18:49:34Z</time>
      </trkpt>
      <trkpt lat="47.20948" lon="-1.63964">
        <ele>20</ele>
        <time>2023-11-12T18:50:02Z</time>
      </trkpt>
      <trkpt lat="47.2093" lon="-1.63955">
        <ele>19</ele>
        <time>2023-11-12T18:50:27Z</time>
      </trkpt>
      <trkpt lat="47.20918" lon="-1.63932">
        <ele>17</ele>
        <time>2023-11-12T18:50:53Z</time>
      </trkpt>
      <trkpt lat="47.20907" lon="-1.6391">
        <ele>16</ele>
        <time>2023-11-12T18:51:18Z</time>
      </trkpt>
      <trkpt lat="47.20892" lon="-1.63896">
        <ele>15</ele>
        <time>2023-11-12T18:51:42Z</time>
      </trkpt>
      <trkpt lat="47.20876" lon="-1.63879">
        <ele>15</ele>
        <time>2023-11-12T18:52:08Z</time>
      </trkpt>
      <trkpt lat="47.20867" lon="-1.63856">
        <ele>13</ele>
        <time>2023-11-12T18:52:32Z</time>
      </trkpt>
      <trkpt lat="47.20848" lon="-1.63844">
        <ele>14</ele>
        <time>2023-11-12T18:53:00Z</time>
      </trkpt>
      <trkpt lat="47.20827" lon="-1.63844">
        <ele>15</ele>
        <time>2023-11-12T18:53:28Z</time>
      </trkpt>
      <trkpt lat="47.20809" lon="-1.63854">
        <ele>15</ele>
        <time>2023-11-12T18:53:54Z</time>
      </trkpt>
      <trkpt lat="47.20789" lon="-1.63862">
        <ele>15</ele>
        <time>2023-11-12T18:54:21Z</time>
      </trkpt>
      <trkpt lat="47.2077" lon="-1.63872">
        <ele>15</ele>
        <time>2023-11-12T18:54:48Z</time>
      </trkpt>
      <trkpt lat="47.20753" lon="-1.63883">
        <ele>14</ele>
        <time>2023-11-12T18:55:13Z</time>
      </trkpt>
      <trkpt lat="47.20722" lon="-1.63914">
        <ele>14</ele>
        <time>2023-11-12T18:56:03Z</time>
      </trkpt>
      <trkpt lat="47.20706" lon="-1.63929">
        <ele>14</ele>
        <time>2023-11-12T18:56:28Z</time>
      </trkpt>
      <trkpt lat="47.20687" lon="-1.63943">
        <ele>13</ele>
        <time>2023-11-12T18:56:57Z</time>
      </trkpt>
      <trkpt lat="47.20668" lon="-1.63953">
        <ele>13</ele>
        <time>2023-11-12T18:57:24Z</time>
      </trkpt>
      <trkpt lat="47.20652" lon="-1.63963">
        <ele>13</ele>
        <time>2023-11-12T18:57:47Z</time>
      </trkpt>
      <trkpt lat="47.20634" lon="-1.63972">
        <ele>12</ele>
        <time>2023-11-12T18:58:12Z</time>
      </trkpt>
      <trkpt lat="47.20616" lon="-1.63981">
        <ele>12</ele>
        <time>2023-11-12T18:58:37Z</time>
      </trkpt>
      <trkpt lat="47.20598" lon="-1.63992">
        <ele>11</ele>
        <time>2023-11-12T18:59:03Z</time>
      </trkpt>
      <trkpt lat="47.2058" lon="-1.64001">
        <ele>11</ele>
        <time>2023-11-12T18:59:29Z</time>
      </trkpt>
      <trkpt lat="47.20561" lon="-1.64008">
        <ele>10</ele>
        <time>2023-11-12T18:59:55Z</time>
      </trkpt>
      <trkpt lat="47.20541" lon="-1.64012">
        <ele>9</ele>
        <time>2023-11-12T19:00:22Z</time>
      </trkpt>
      <trkpt lat="47.20521" lon="-1.64017">
        <ele>8</ele>
        <time>2023-11-12T19:00:49Z</time>
      </trkpt>
      <trkpt lat="47.20502" lon="-1.64024">
        <ele>7</ele>
        <time>2023-11-12T19:01:15Z</time>
      </trkpt>
      <trkpt lat="47.20485" lon="-1.64033">
        <ele>7</ele>
        <time>2023-11-12T19:01:39Z</time>
      </trkpt>
      <trkpt lat="47.20466" lon="-1.64044">
        <ele>6</ele>
        <time>2023-11-12T19:02:06Z</time>
      </trkpt>
      <trkpt lat="47.20452" lon="-1.64064">
        <ele>6</ele>
        <time>2023-11-12T19:02:33Z</time>
      </trkpt>
      <trkpt lat="47.20441" lon="-1.64086">
        <ele>6</ele>
        <time>2023-11-12T19:02:57Z</time>
      </trkpt>
      <trkpt lat="47.20433" lon="-1.64111">
        <ele>6</ele>
        <time>2023-11-12T19:03:22Z</time>
      </trkpt>
      <trkpt lat="47.20423" lon="-1.64136">
        <ele>6</ele>
        <time>2023-11-12T19:03:49Z</time>
      </trkpt>
      <trkpt lat="47.20409" lon="-1.64154">
        <ele>5</ele>
        <time>2023-11-12T19:04:13Z</time>
      </trkpt>
      <trkpt lat="47.20389" lon="-1.64157">
        <ele>5</ele>
        <time>2023-11-12T19:04:40Z</time>
      </trkpt>
      <trkpt lat="47.20372" lon="-1.64167">
        <ele>4</ele>
        <time>2023-11-12T19:05:05Z</time>
      </trkpt>
      <trkpt lat="47.20352" lon="-1.6418">
        <ele>3</ele>
        <time>2023-11-12T19:05:34Z</time>
      </trkpt>
      <trkpt lat="47.20334" lon="-1.64189">
        <ele>3</ele>
        <time>2023-11-12T19:05:59Z</time>
      </trkpt>
      <trkpt lat="47.20318" lon="-1.64205">
        <ele>2</ele>
        <time>2023-11-12T19:06:25Z</time>
      </trkpt>
      <trkpt lat="47.20313" lon="-1.64231">
        <ele>3</ele>
        <time>2023-11-12T19:06:50Z</time>
      </trkpt>
      <trkpt lat="47.20309" lon="-1.64261">
        <ele>3</ele>
        <time>2023-11-12T19:07:17Z</time>
      </trkpt>
      <trkpt lat="47.2031" lon="-1.64288">
        <ele>4</ele>
        <time>2023-11-12T19:07:42Z</time>
      </trkpt>
      <trkpt lat="47.20306" lon="-1.64316">
        <ele>4</ele>
        <time>2023-11-12T19:08:08Z</time>
      </trkpt>
      <trkpt lat="47.20296" lon="-1.6434">
        <ele>4</ele>
        <time>2023-11-12T19:08:33Z</time>
      </trkpt>
      <trkpt lat="47.20292" lon="-1.64367">
        <ele>4</ele>
        <time>2023-11-12T19:08:58Z</time>
      </trkpt>
      <trkpt lat="47.20284" lon="-1.64391">
        <ele>3</ele>
        <time>2023-11-12T19:09:23Z</time>
      </trkpt>
      <trkpt lat="47.20277" lon="-1.64421">
        <ele>3</ele>
        <time>2023-11-12T19:09:51Z</time>
      </trkpt>
      <trkpt lat="47.20269" lon="-1.64445">
        <ele>3</ele>
        <time>2023-11-12T19:10:16Z</time>
      </trkpt>
      <trkpt lat="47.20262" lon="-1.64472">
        <ele>2</ele>
        <time>2023-11-12T19:10:42Z</time>
      </trkpt>
      <trkpt lat="47.20255" lon="-1.64497">
        <ele>2</ele>
        <time>2023-11-12T19:11:06Z</time>
      </trkpt>
      <trkpt lat="47.20231" lon="-1.64576">
        <ele>1</ele>
        <time>2023-11-12T19:12:25Z</time>
      </trkpt>
      <trkpt lat="47.20222" lon="-1.64601">
        <ele>1</ele>
        <time>2023-11-12T19:12:50Z</time>
      </trkpt>
      <trkpt lat="47.20188" lon="-1.64631">
        <ele>2</ele>
        <time>2023-11-12T19:13:43Z</time>
      </trkpt>
      <trkpt lat="47.2017" lon="-1.64643">
        <ele>2</ele>
        <time>2023-11-12T19:14:10Z</time>
      </trkpt>
      <trkpt lat="47.20116" lon="-1.64668">
        <ele>8</ele>
        <time>2023-11-12T19:15:25Z</time>
      </trkpt>
      <trkpt lat="47.201" lon="-1.64681">
        <ele>10</ele>
        <time>2023-11-12T19:15:50Z</time>
      </trkpt>
      <trkpt lat="47.20102" lon="-1.64709">
        <ele>11</ele>
        <time>2023-11-12T19:16:15Z</time>
      </trkpt>
      <trkpt lat="47.20091" lon="-1.64731">
        <ele>13</ele>
        <time>2023-11-12T19:16:40Z</time>
      </trkpt>
      <trkpt lat="47.20088" lon="-1.64759">
        <ele>15</ele>
        <time>2023-11-12T19:17:06Z</time>
      </trkpt>
      <trkpt lat="47.20087" lon="-1.64786">
        <ele>15</ele>
        <time>2023-11-12T19:17:30Z</time>
      </trkpt>
      <trkpt lat="47.20087" lon="-1.64814">
        <ele>15</ele>
        <time>2023-11-12T19:17:55Z</time>
      </trkpt>
      <trkpt lat="47.20085" lon="-1.64842">
        <ele>16</ele>
        <time>2023-11-12T19:18:21Z</time>
      </trkpt>
      <trkpt lat="47.20088" lon="-1.64869">
        <ele>16</ele>
        <time>2023-11-12T19:18:46Z</time>
      </trkpt>
      <trkpt lat="47.20097" lon="-1.64895">
        <ele>15</ele>
        <time>2023-11-12T19:19:12Z</time>
      </trkpt>
      <trkpt lat="47.20116" lon="-1.64944">
        <ele>13</ele>
        <time>2023-11-12T19:20:03Z</time>
      </trkpt>
      <trkpt lat="47.20125" lon="-1.64969">
        <ele>12</ele>
        <time>2023-11-12T19:20:29Z</time>
      </trkpt>
      <trkpt lat="47.20138" lon="-1.65025">
        <ele>12</ele>
        <time>2023-11-12T19:21:23Z</time>
      </trkpt>
      <trkpt lat="47.20145" lon="-1.65052">
        <ele>13</ele>
        <time>2023-11-12T19:21:49Z</time>
      </trkpt>
      <trkpt lat="47.2015" lon="-1.65109">
        <ele>14</ele>
        <time>2023-11-12T19:22:41Z</time>
      </trkpt>
      <trkpt lat="47.20152" lon="-1.65137">
        <ele>14</ele>
        <time>2023-11-12T19:23:07Z</time>
      </trkpt>
      <trkpt lat="47.20154" lon="-1.65165">
        <ele>14</ele>
        <time>2023-11-12T19:23:32Z</time>
      </trkpt>
      <trkpt lat="47.20155" lon="-1.65192">
        <ele>15</ele>
        <time>2023-11-12T19:23:57Z</time>
      </trkpt>
      <trkpt lat="47.2015" lon="-1.65218">
        <ele>15</ele>
        <time>2023-11-12T19:24:21Z</time>
      </trkpt>
      <trkpt lat="47.20143" lon="-1.65243">
        <ele>16</ele>
        <time>2023-11-12T19:24:46Z</time>
      </trkpt>
      <trkpt lat="47.20148" lon="-1.6527">
        <ele>16</ele>
        <time>2023-11-12T19:25:11Z</time>
      </trkpt>
      <trkpt lat="47.2015" lon="-1.65298">
        <ele>16</ele>
        <time>2023-11-12T19:25:37Z</time>
      </trkpt>
      <trkpt lat="47.20155" lon="-1.65326">
        <ele>16</ele>
        <time>2023-11-12T19:26:03Z</time>
      </trkpt>
      <trkpt lat="47.20159" lon="-1.65353">
        <ele>17</ele>
        <time>2023-11-12T19:26:28Z</time>
      </trkpt>
      <trkpt lat="47.20169" lon="-1.65437">
        <ele>17</ele>
        <time>2023-11-12T19:27:45Z</time>
      </trkpt>
      <trkpt lat="47.20175" lon="-1.65464">
        <ele>16</ele>
        <time>2023-11-12T19:28:11Z</time>
      </trkpt>
      <trkpt lat="47.20171" lon="-1.65491">
        <ele>17</ele>
        <time>2023-11-12T19:28:36Z</time>
      </trkpt>
      <trkpt lat="47.20154" lon="-1.65484">
        <ele>17</ele>
        <time>2023-11-12T19:28:59Z</time>
      </trkpt>
      <trkpt lat="47.20116" lon="-1.65481">
        <ele>15</ele>
        <time>2023-11-12T19:29:50Z</time>
      </trkpt>
      <trkpt lat="47.20097" lon="-1.65477">
        <ele>14</ele>
        <time>2023-11-12T19:30:16Z</time>
      </trkpt>
      <trkpt lat="47.20081" lon="-1.65459">
        <ele>13</ele>
        <time>2023-11-12T19:30:43Z</time>
      </trkpt>
      <trkpt lat="47.20068" lon="-1.65438">
        <ele>12</ele>
        <time>2023-11-12T19:31:09Z</time>
      </trkpt>
      <trkpt lat="47.20049" lon="-1.65434">
        <ele>11</ele>
        <time>2023-11-12T19:31:34Z</time>
      </trkpt>
      <trkpt lat="47.20033" lon="-1.65419">
        <ele>9</ele>
        <time>2023-11-12T19:31:59Z</time>
      </trkpt>
      <trkpt lat="47.20027" lon="-1.65446">
        <ele>9</ele>
        <time>2023-11-12T19:32:25Z</time>
      </trkpt>
      <trkpt lat="47.20032" lon="-1.65475">
        <ele>10</ele>
        <time>2023-11-12T19:32:52Z</time>
      </trkpt>
      <trkpt lat="47.20038" lon="-1.65502">
        <ele>10</ele>
        <time>2023-11-12T19:33:18Z</time>
      </trkpt>
      <trkpt lat="47.20041" lon="-1.6553">
        <ele>10</ele>
        <time>2023-11-12T19:33:44Z</time>
      </trkpt>
      <trkpt lat="47.20045" lon="-1.65556">
        <ele>10</ele>
        <time>2023-11-12T19:34:08Z</time>
      </trkpt>
      <trkpt lat="47.20056" lon="-1.65612">
        <ele>10</ele>
        <time>2023-11-12T19:35:01Z</time>
      </trkpt>
      <trkpt lat="47.20062" lon="-1.6564">
        <ele>10</ele>
        <time>2023-11-12T19:35:27Z</time>
      </trkpt>
      <trkpt lat="47.2007" lon="-1.65697">
        <ele>9</ele>
        <time>2023-11-12T19:36:20Z</time>
      </trkpt>
      <trkpt lat="47.20073" lon="-1.65723">
        <ele>9</ele>
        <time>2023-11-12T19:36:44Z</time>
      </trkpt>
      <trkpt lat="47.20081" lon="-1.65751">
        <ele>9</ele>
        <time>2023-11-12T19:37:12Z</time>
      </trkpt>
      <trkpt lat="47.20086" lon="-1.65778">
        <ele>9</ele>
        <time>2023-11-12T19:37:37Z</time>
      </trkpt>
      <trkpt lat="47.20091" lon="-1.65807">
        <ele>8</ele>
        <time>2023-11-12T19:38:04Z</time>
      </trkpt>
      <trkpt lat="47.20095" lon="-1.65837">
        <ele>8</ele>
        <time>2023-11-12T19:38:32Z</time>
      </trkpt>
      <trkpt lat="47.201" lon="-1.65863">
        <ele>8</ele>
        <time>2023-11-12T19:38:56Z</time>
      </trkpt>
      <trkpt lat="47.20106" lon="-1.65892">
        <ele>8</ele>
        <time>2023-11-12T19:39:24Z</time>
      </trkpt>
      <trkpt lat="47.20109" lon="-1.65922">
        <ele>8</ele>
        <time>2023-11-12T19:39:51Z</time>
      </trkpt>
      <trkpt lat="47.20114" lon="-1.65948">
        <ele>8</ele>
        <time>2023-11-12T19:40:16Z</time>
      </trkpt>
      <trkpt lat="47.20121" lon="-1.66002">
        <ele>8</ele>
        <time>2023-11-12T19:41:06Z</time>
      </trkpt>
      <trkpt lat="47.20125" lon="-1.66028">
        <ele>9</ele>
        <time>2023-11-12T19:41:30Z</time>
      </trkpt>
      <trkpt lat="47.20129" lon="-1.66057">
        <ele>9</ele>
        <time>2023-11-12T19:41:57Z</time>
      </trkpt>
      <trkpt lat="47.20131" lon="-1.66085">
        <ele>9</ele>
        <time>2023-11-12T19:42:22Z</time>
      </trkpt>
      <trkpt lat="47.20134" lon="-1.66112">
        <ele>9</ele>
        <time>2023-11-12T19:42:47Z</time>
      </trkpt>
      <trkpt lat="47.20136" lon="-1.6617">
        <ele>9</ele>
        <time>2023-11-12T19:43:40Z</time>
      </trkpt>
      <trkpt lat="47.20138" lon="-1.66198">
        <ele>9</ele>
        <time>2023-11-12T19:44:05Z</time>
      </trkpt>
      <trkpt lat="47.20138" lon="-1.66254">
        <ele>8</ele>
        <time>2023-11-12T19:44:56Z</time>
      </trkpt>
      <trkpt lat="47.20139" lon="-1.66282">
        <ele>8</ele>
        <time>2023-11-12T19:45:21Z</time>
      </trkpt>
      <trkpt lat="47.20129" lon="-1.66305">
        <ele>7</ele>
        <time>2023-11-12T19:45:46Z</time>
      </trkpt>
      <trkpt lat="47.20089" lon="-1.66301">
        <ele>7</ele>
        <time>2023-11-12T19:46:40Z</time>
      </trkpt>
      <trkpt lat="47.20069" lon="-1.66321">
        <ele>7</ele>
        <time>2023-11-12T19:47:12Z</time>
      </trkpt>
      <trkpt lat="47.20047" lon="-1.66321">
        <ele>6</ele>
        <time>2023-11-12T19:47:41Z</time>
      </trkpt>
      <trkpt lat="47.20026" lon="-1.66317">
        <ele>6</ele>
        <time>2023-11-12T19:48:10Z</time>
      </trkpt>
      <trkpt lat="47.20024" lon="-1.66348">
        <ele>6</ele>
        <time>2023-11-12T19:48:38Z</time>
      </trkpt>
      <trkpt lat="47.20004" lon="-1.66355">
        <ele>6</ele>
        <time>2023-11-12T19:49:05Z</time>
      </trkpt>
      <trkpt lat="47.19985" lon="-1.66355">
        <ele>6</ele>
        <time>2023-11-12T19:49:31Z</time>
      </trkpt>
      <trkpt lat="47.19966" lon="-1.66353">
        <ele>6</ele>
        <time>2023-11-12T19:49:56Z</time>
      </trkpt>
      <trkpt lat="47.19946" lon="-1.66354">
        <ele>6</ele>
        <time>2023-11-12T19:50:23Z</time>
      </trkpt>
      <trkpt lat="47.19927" lon="-1.66352">
        <ele>6</ele>
        <time>2023-11-12T19:50:48Z</time>
      </trkpt>
      <trkpt lat="47.19908" lon="-1.66353">
        <ele>6</ele>
        <time>2023-11-12T19:51:13Z</time>
      </trkpt>
      <trkpt lat="47.19889" lon="-1.66347">
        <ele>6</ele>
        <time>2023-11-12T19:51:39Z</time>
      </trkpt>
      <trkpt lat="47.1987" lon="-1.66338">
        <ele>6</ele>
        <time>2023-11-12T19:52:06Z</time>
      </trkpt>
      <trkpt lat="47.19851" lon="-1.66329">
        <ele>6</ele>
        <time>2023-11-12T19:52:33Z</time>
      </trkpt>
      <trkpt lat="47.19833" lon="-1.66324">
        <ele>6</ele>
        <time>2023-11-12T19:52:57Z</time>
      </trkpt>
      <trkpt lat="47.19777" lon="-1.66299">
        <ele>5</ele>
        <time>2023-11-12T19:54:15Z</time>
      </trkpt>
      <trkpt lat="47.19762" lon="-1.66285">
        <ele>5</ele>
        <time>2023-11-12T19:54:39Z</time>
      </trkpt>
      <trkpt lat="47.19759" lon="-1.66311">
        <ele>4</ele>
        <time>2023-11-12T19:55:03Z</time>
      </trkpt>
      <trkpt lat="47.19755" lon="-1.66341">
        <ele>4</ele>
        <time>2023-11-12T19:55:31Z</time>
      </trkpt>
      <trkpt lat="47.19748" lon="-1.66427">
        <ele>6</ele>
        <time>2023-11-12T19:56:49Z</time>
      </trkpt>
      <trkpt lat="47.19749" lon="-1.66456">
        <ele>6</ele>
        <time>2023-11-12T19:57:15Z</time>
      </trkpt>
      <trkpt lat="47.19743" lon="-1.66484">
        <ele>6</ele>
        <time>2023-11-12T19:57:42Z</time>
      </trkpt>
      <trkpt lat="47.19739" lon="-1.66513">
        <ele>6</ele>
        <time>2023-11-12T19:58:09Z</time>
      </trkpt>
      <trkpt lat="47.19738" lon="-1.66541">
        <ele>6</ele>
        <time>2023-11-12T19:58:34Z</time>
      </trkpt>
      <trkpt lat="47.1974" lon="-1.66568">
        <ele>6</ele>
        <time>2023-11-12T19:58:59Z</time>
      </trkpt>
      <trkpt lat="47.19727" lon="-1.66589">
        <ele>6</ele>
        <time>2023-11-12T19:59:25Z</time>
      </trkpt>
      <trkpt lat="47.19709" lon="-1.66595">
        <ele>7</ele>
        <time>2023-11-12T19:59:49Z</time>
      </trkpt>
      <trkpt lat="47.19704" lon="-1.66622">
        <ele>8</ele>
        <time>2023-11-12T20:00:15Z</time>
      </trkpt>
      <trkpt lat="47.19698" lon="-1.66647">
        <ele>9</ele>
        <time>2023-11-12T20:00:39Z</time>
      </trkpt>
      <trkpt lat="47.19679" lon="-1.66651">
        <ele>10</ele>
        <time>2023-11-12T20:01:04Z</time>
      </trkpt>
      <trkpt lat="47.19664" lon="-1.66636">
        <ele>9</ele>
        <time>2023-11-12T20:01:29Z</time>
      </trkpt>
      <trkpt lat="47.19645" lon="-1.66634">
        <ele>9</ele>
        <time>2023-11-12T20:01:54Z</time>
      </trkpt>
      <trkpt lat="47.19635" lon="-1.66657">
        <ele>9</ele>
        <time>2023-11-12T20:02:19Z</time>
      </trkpt>
      <trkpt lat="47.1962" lon="-1.66676">
        <ele>10</ele>
        <time>2023-11-12T20:02:45Z</time>
      </trkpt>
      <trkpt lat="47.19613" lon="-1.66704">
        <ele>11</ele>
        <time>2023-11-12T20:03:12Z</time>
      </trkpt>
      <trkpt lat="47.19617" lon="-1.66732">
        <ele>13</ele>
        <time>2023-11-12T20:03:38Z</time>
      </trkpt>
      <trkpt lat="47.19622" lon="-1.66759">
        <ele>14</ele>
        <time>2023-11-12T20:04:04Z</time>
      </trkpt>
      <trkpt lat="47.19632" lon="-1.66782">
        <ele>15</ele>
        <time>2023-11-12T20:04:28Z</time>
      </trkpt>
      <trkpt lat="47.19643" lon="-1.66806">
        <ele>17</ele>
        <time>2023-11-12T20:04:55Z</time>
      </trkpt>
      <trkpt lat="47.19652" lon="-1.66832">
        <ele>18</ele>
        <time>2023-11-12T20:05:21Z</time>
      </trkpt>
      <trkpt lat="47.19663" lon="-1.66856">
        <ele>19</ele>
        <time>2023-11-12T20:05:47Z</time>
      </trkpt>
      <trkpt lat="47.19674" lon="-1.6688">
        <ele>19</ele>
        <time>2023-11-12T20:06:13Z</time>
      </trkpt>
      <trkpt lat="47.1969" lon="-1.66897">
        <ele>19</ele>
        <time>2023-11-12T20:06:40Z</time>
      </trkpt>
      <trkpt lat="47.19706" lon="-1.66911">
        <ele>20</ele>
        <time>2023-11-12T20:07:05Z</time>
      </trkpt>
      <trkpt lat="47.19716" lon="-1.66933">
        <ele>19</ele>
        <time>2023-11-12T20:07:29Z</time>
      </trkpt>
      <trkpt lat="47.197" lon="-1.66948">
        <ele>16</ele>
        <time>2023-11-12T20:07:54Z</time>
      </trkpt>
      <trkpt lat="47.19681" lon="-1.66954">
        <ele>13</ele>
        <time>2023-11-12T20:08:20Z</time>
      </trkpt>
      <trkpt lat="47.19662" lon="-1.66958">
        <ele>11</ele>
        <time>2023-11-12T20:08:46Z</time>
      </trkpt>
      <trkpt lat="47.19648" lon="-1.66977">
        <ele>7</ele>
        <time>2023-11-12T20:09:11Z</time>
      </trkpt>
      <trkpt lat="47.19652" lon="-1.67003">
        <ele>6</ele>
        <time>2023-11-12T20:09:35Z</time>
      </trkpt>
      <trkpt lat="47.1966" lon="-1.6703">
        <ele>5</ele>
        <time>2023-11-12T20:10:02Z</time>
      </trkpt>
      <trkpt lat="47.19667" lon="-1.67057">
        <ele>4</ele>
        <time>2023-11-12T20:10:28Z</time>
      </trkpt>
      <trkpt lat="47.19672" lon="-1.67084">
        <ele>2</ele>
        <time>2023-11-12T20:10:53Z</time>
      </trkpt>
      <trkpt lat="47.19674" lon="-1.67112">
        <ele>2</ele>
        <time>2023-11-12T20:11:19Z</time>
      </trkpt>
      <trkpt lat="47.19684" lon="-1.67136">
        <ele>2</ele>
        <time>2023-11-12T20:11:44Z</time>
      </trkpt>
      <trkpt lat="47.19699" lon="-1.67187">
        <ele>2</ele>
        <time>2023-11-12T20:12:35Z</time>
      </trkpt>
      <trkpt lat="47.19706" lon="-1.67214">
        <ele>2</ele>
        <time>2023-11-12T20:13:01Z</time>
      </trkpt>
      <trkpt lat="47.19716" lon="-1.67237">
        <ele>2</ele>
        <time>2023-11-12T20:13:26Z</time>
      </trkpt>
      <trkpt lat="47.19725" lon="-1.67262">
        <ele>2</ele>
        <time>2023-11-12T20:13:51Z</time>
      </trkpt>
      <trkpt lat="47.19737" lon="-1.67287">
        <ele>2</ele>
        <time>2023-11-12T20:14:19Z</time>
      </trkpt>
      <trkpt lat="47.19746" lon="-1.67313">
        <ele>1</ele>
        <time>2023-11-12T20:14:46Z</time>
      </trkpt>
      <trkpt lat="47.19765" lon="-1.67301">
        <ele>2</ele>
        <time>2023-11-12T20:15:13Z</time>
      </trkpt>
      <trkpt lat="47.19784" lon="-1.673">
        <ele>3</ele>
        <time>2023-11-12T20:15:39Z</time>
      </trkpt>
      <trkpt lat="47.19798" lon="-1.67317">
        <ele>4</ele>
        <time>2023-11-12T20:16:03Z</time>
      </trkpt>
      <trkpt lat="47.198" lon="-1.67343">
        <ele>3</ele>
        <time>2023-11-12T20:16:27Z</time>
      </trkpt>
      <trkpt lat="47.19804" lon="-1.67371">
        <ele>3</ele>
        <time>2023-11-12T20:16:53Z</time>
      </trkpt>
      <trkpt lat="47.19806" lon="-1.67401">
        <ele>3</ele>
        <time>2023-11-12T20:17:20Z</time>
      </trkpt>
      <trkpt lat="47.19808" lon="-1.67429">
        <ele>3</ele>
        <time>2023-11-12T20:17:45Z</time>
      </trkpt>
      <trkpt lat="47.1982" lon="-1.67409">
        <ele>3</ele>
        <time>2023-11-12T20:18:10Z</time>
      </trkpt>
      <trkpt lat="47.19813" lon="-1.67384">
        <ele>3</ele>
        <time>2023-11-12T20:18:34Z</time>
      </trkpt>
      <trkpt lat="47.19816" lon="-1.67355">
        <ele>4</ele>
        <time>2023-11-12T20:19:01Z</time>
      </trkpt>
      <trkpt lat="47.19821" lon="-1.67329">
        <ele>5</ele>
        <time>2023-11-12T20:19:25Z</time>
      </trkpt>
      <trkpt lat="47.19807" lon="-1.6731">
        <ele>4</ele>
        <time>2023-11-12T20:19:51Z</time>
      </trkpt>
      <trkpt lat="47.19809" lon="-1.67284">
        <ele>5</ele>
        <time>2023-11-12T20:20:14Z</time>
      </trkpt>
      <trkpt lat="47.19823" lon="-1.67267">
        <ele>6</ele>
        <time>2023-11-12T20:20:39Z</time>
      </trkpt>
      <trkpt lat="47.19836" lon="-1.6729">
        <ele>6</ele>
        <time>2023-11-12T20:21:06Z</time>
      </trkpt>
      <trkpt lat="47.1985" lon="-1.67308">
        <ele>7</ele>
        <time>2023-11-12T20:21:30Z</time>
      </trkpt>
      <trkpt lat="47.19868" lon="-1.67307">
        <ele>8</ele>
        <time>2023-11-12T20:21:55Z</time>
      </trkpt>
      <trkpt lat="47.19886" lon="-1.67293">
        <ele>9</ele>
        <time>2023-11-12T20:22:22Z</time>
      </trkpt>
      <trkpt lat="47.19897" lon="-1.67314">
        <ele>9</ele>
        <time>2023-11-12T20:22:46Z</time>
      </trkpt>
      <trkpt lat="47.19897" lon="-1.67343">
        <ele>9</ele>
        <time>2023-11-12T20:23:12Z</time>
      </trkpt>
      <trkpt lat="47.19903" lon="-1.6737">
        <ele>9</ele>
        <time>2023-11-12T20:23:38Z</time>
      </trkpt>
      <trkpt lat="47.19911" lon="-1.67393">
        <ele>9</ele>
        <time>2023-11-12T20:24:01Z</time>
      </trkpt>
      <trkpt lat="47.19921" lon="-1.67417">
        <ele>9</ele>
        <time>2023-11-12T20:24:27Z</time>
      </trkpt>
      <trkpt lat="47.19938" lon="-1.67427">
        <ele>10</ele>
        <time>2023-11-12T20:24:51Z</time>
      </trkpt>
      <trkpt lat="47.19957" lon="-1.67435">
        <ele>11</ele>
        <time>2023-11-12T20:25:18Z</time>
      </trkpt>
      <trkpt lat="47.19964" lon="-1.67462">
        <ele>11</ele>
        <time>2023-11-12T20:25:44Z</time>
      </trkpt>
      <trkpt lat="47.19967" lon="-1.67491">
        <ele>11</ele>
        <time>2023-11-12T20:26:10Z</time>
      </trkpt>
      <trkpt lat="47.19972" lon="-1.67518">
        <ele>11</ele>
        <time>2023-11-12T20:26:36Z</time>
      </trkpt>
      <trkpt lat="47.19982" lon="-1.67543">
        <ele>10</ele>
        <time>2023-11-12T20:27:02Z</time>
      </trkpt>
      <trkpt lat="47.19926" lon="-1.67599">
        <ele>4.2</ele>
      </trkpt>
      <trkpt lat="47.20127" lon="-1.67946">
        <ele>4.5</ele>
      </trkpt>
      <trkpt lat="47.20253" lon="-1.67844">
        <ele>7.9</ele>
      </trkpt>
      <trkpt lat="47.20192" lon="-1.67649">
        <ele>5.4</ele>
      </trkpt>
      <trkpt lat="47.20111" lon="-1.67646">
        <ele>14.5</ele>
      </trkpt>
      <trkpt lat="47.20032" lon="-1.67502">
        <ele>13</ele>
        <time>2023-11-12T20:28:18Z</time>
      </trkpt>
      <trkpt lat="47.20034" lon="-1.67473">
        <ele>12</ele>
        <time>2023-11-12T20:28:45Z</time>
      </trkpt>
      <trkpt lat="47.20029" lon="-1.67446">
        <ele>12</ele>
        <time>2023-11-12T20:29:10Z</time>
      </trkpt>
      <trkpt lat="47.2002" lon="-1.67423">
        <ele>13</ele>
        <time>2023-11-12T20:29:34Z</time>
      </trkpt>
      <trkpt lat="47.19995" lon="-1.67379">
        <ele>13</ele>
        <time>2023-11-12T20:30:26Z</time>
      </trkpt>
      <trkpt lat="47.19983" lon="-1.67358">
        <ele>13</ele>
        <time>2023-11-12T20:30:51Z</time>
      </trkpt>
      <trkpt lat="47.19972" lon="-1.67333">
        <ele>12</ele>
        <time>2023-11-12T20:31:18Z</time>
      </trkpt>
      <trkpt lat="47.19961" lon="-1.67312">
        <ele>11</ele>
        <time>2023-11-12T20:31:42Z</time>
      </trkpt>
      <trkpt lat="47.19942" lon="-1.67265">
        <ele>11</ele>
        <time>2023-11-12T20:32:32Z</time>
      </trkpt>
      <trkpt lat="47.19932" lon="-1.6724">
        <ele>11</ele>
        <time>2023-11-12T20:32:58Z</time>
      </trkpt>
      <trkpt lat="47.19918" lon="-1.67217">
        <ele>12</ele>
        <time>2023-11-12T20:33:26Z</time>
      </trkpt>
      <trkpt lat="47.19903" lon="-1.67198">
        <ele>11</ele>
        <time>2023-11-12T20:33:53Z</time>
      </trkpt>
      <trkpt lat="47.19892" lon="-1.67177">
        <ele>11</ele>
        <time>2023-11-12T20:34:17Z</time>
      </trkpt>
      <trkpt lat="47.19877" lon="-1.67157">
        <ele>11</ele>
        <time>2023-11-12T20:34:44Z</time>
      </trkpt>
      <trkpt lat="47.19867" lon="-1.67135">
        <ele>11</ele>
        <time>2023-11-12T20:35:08Z</time>
      </trkpt>
      <trkpt lat="47.19853" lon="-1.67113">
        <ele>11</ele>
        <time>2023-11-12T20:35:35Z</time>
      </trkpt>
      <trkpt lat="47.19845" lon="-1.67087">
        <ele>12</ele>
        <time>2023-11-12T20:36:01Z</time>
      </trkpt>
      <trkpt lat="47.19832" lon="-1.67068">
        <ele>14</ele>
        <time>2023-11-12T20:36:25Z</time>
      </trkpt>
      <trkpt lat="47.19813" lon="-1.67055">
        <ele>14</ele>
        <time>2023-11-12T20:36:53Z</time>
      </trkpt>
      <trkpt lat="47.19794" lon="-1.67055">
        <ele>13</ele>
        <time>2023-11-12T20:37:19Z</time>
      </trkpt>
      <trkpt lat="47.19783" lon="-1.67031">
        <ele>14</ele>
        <time>2023-11-12T20:37:45Z</time>
      </trkpt>
      <trkpt lat="47.19774" lon="-1.67008">
        <ele>16</ele>
        <time>2023-11-12T20:38:09Z</time>
      </trkpt>
      <trkpt lat="47.19764" lon="-1.66987">
        <ele>17</ele>
        <time>2023-11-12T20:38:32Z</time>
      </trkpt>
      <trkpt lat="47.19753" lon="-1.66964">
        <ele>19</ele>
        <time>2023-11-12T20:38:58Z</time>
      </trkpt>
      <trkpt lat="47.19745" lon="-1.66939">
        <ele>21</ele>
        <time>2023-11-12T20:39:23Z</time>
      </trkpt>
      <trkpt lat="47.19733" lon="-1.66916">
        <ele>22</ele>
        <time>2023-11-12T20:39:49Z</time>
      </trkpt>
      <trkpt lat="47.19727" lon="-1.6689">
        <ele>22</ele>
        <time>2023-11-12T20:40:14Z</time>
      </trkpt>
      <trkpt lat="47.19731" lon="-1.66863">
        <ele>23</ele>
        <time>2023-11-12T20:40:39Z</time>
      </trkpt>
      <trkpt lat="47.19747" lon="-1.66846">
        <ele>24</ele>
        <time>2023-11-12T20:41:05Z</time>
      </trkpt>
      <trkpt lat="47.19758" lon="-1.66822">
        <ele>21</ele>
        <time>2023-11-12T20:41:32Z</time>
      </trkpt>
      <trkpt lat="47.19755" lon="-1.66794">
        <ele>19</ele>
        <time>2023-11-12T20:41:57Z</time>
      </trkpt>
      <trkpt lat="47.19751" lon="-1.66767">
        <ele>17</ele>
        <time>2023-11-12T20:42:22Z</time>
      </trkpt>
      <trkpt lat="47.19729" lon="-1.66724">
        <ele>14</ele>
        <time>2023-11-12T20:43:11Z</time>
      </trkpt>
      <trkpt lat="47.19717" lon="-1.66703">
        <ele>12</ele>
        <time>2023-11-12T20:43:36Z</time>
      </trkpt>
      <trkpt lat="47.19716" lon="-1.66674">
        <ele>9</ele>
        <time>2023-11-12T20:44:02Z</time>
      </trkpt>
      <trkpt lat="47.19712" lon="-1.66647">
        <ele>8</ele>
        <time>2023-11-12T20:44:27Z</time>
      </trkpt>
      <trkpt lat="47.19713" lon="-1.66621">
        <ele>7</ele>
        <time>2023-11-12T20:44:51Z</time>
      </trkpt>
      <trkpt lat="47.19714" lon="-1.66591">
        <ele>7</ele>
        <time>2023-11-12T20:45:18Z</time>
      </trkpt>
      <trkpt lat="47.19732" lon="-1.66583">
        <ele>6</ele>
        <time>2023-11-12T20:45:43Z</time>
      </trkpt>
      <trkpt lat="47.19749" lon="-1.66571">
        <ele>6</ele>
        <time>2023-11-12T20:46:08Z</time>
      </trkpt>
      <trkpt lat="47.19763" lon="-1.66553">
        <ele>6</ele>
        <time>2023-11-12T20:46:33Z</time>
      </trkpt>
      <trkpt lat="47.19782" lon="-1.66553">
        <ele>6</ele>
        <time>2023-11-12T20:46:59Z</time>
      </trkpt>
      <trkpt lat="47.19802" lon="-1.66559">
        <ele>5</ele>
        <time>2023-11-12T20:47:26Z</time>
      </trkpt>
      <trkpt lat="47.19823" lon="-1.66561">
        <ele>5</ele>
        <time>2023-11-12T20:47:54Z</time>
      </trkpt>
      <trkpt lat="47.19854" lon="-1.66598">
        <ele>5</ele>
        <time>2023-11-12T20:48:47Z</time>
      </trkpt>
      <trkpt lat="47.1987" lon="-1.66616">
        <ele>5</ele>
        <time>2023-11-12T20:49:14Z</time>
      </trkpt>
      <trkpt lat="47.19883" lon="-1.66635">
        <ele>5</ele>
        <time>2023-11-12T20:49:39Z</time>
      </trkpt>
      <trkpt lat="47.19898" lon="-1.66651">
        <ele>5</ele>
        <time>2023-11-12T20:50:03Z</time>
      </trkpt>
      <trkpt lat="47.19912" lon="-1.6667">
        <ele>5</ele>
        <time>2023-11-12T20:50:29Z</time>
      </trkpt>
      <trkpt lat="47.19926" lon="-1.66687">
        <ele>5</ele>
        <time>2023-11-12T20:50:53Z</time>
      </trkpt>
      <trkpt lat="47.19941" lon="-1.66707">
        <ele>5</ele>
        <time>2023-11-12T20:51:20Z</time>
      </trkpt>
      <trkpt lat="47.19972" lon="-1.66744">
        <ele>5</ele>
        <time>2023-11-12T20:52:13Z</time>
      </trkpt>
      <trkpt lat="47.19987" lon="-1.66762">
        <ele>5</ele>
        <time>2023-11-12T20:52:39Z</time>
      </trkpt>
      <trkpt lat="47.19999" lon="-1.66786">
        <ele>5</ele>
        <time>2023-11-12T20:53:06Z</time>
      </trkpt>
      <trkpt lat="47.20014" lon="-1.66806">
        <ele>5</ele>
        <time>2023-11-12T20:53:33Z</time>
      </trkpt>
      <trkpt lat="47.20031" lon="-1.66795">
        <ele>5</ele>
        <time>2023-11-12T20:53:58Z</time>
      </trkpt>
      <trkpt lat="47.20044" lon="-1.66773">
        <ele>5</ele>
        <time>2023-11-12T20:54:24Z</time>
      </trkpt>
      <trkpt lat="47.20062" lon="-1.66762">
        <ele>5</ele>
        <time>2023-11-12T20:54:50Z</time>
      </trkpt>
      <trkpt lat="47.2007" lon="-1.66738">
        <ele>5</ele>
        <time>2023-11-12T20:55:14Z</time>
      </trkpt>
      <trkpt lat="47.20073" lon="-1.66709">
        <ele>5</ele>
        <time>2023-11-12T20:55:41Z</time>
      </trkpt>
      <trkpt lat="47.20075" lon="-1.66626">
        <ele>7</ele>
        <time>2023-11-12T20:56:56Z</time>
      </trkpt>
      <trkpt lat="47.20077" lon="-1.66597">
        <ele>7</ele>
        <time>2023-11-12T20:57:23Z</time>
      </trkpt>
      <trkpt lat="47.20078" lon="-1.66568">
        <ele>8</ele>
        <time>2023-11-12T20:57:49Z</time>
      </trkpt>
      <trkpt lat="47.20076" lon="-1.66539">
        <ele>7</ele>
        <time>2023-11-12T20:58:16Z</time>
      </trkpt>
      <trkpt lat="47.20078" lon="-1.66511">
        <ele>7</ele>
        <time>2023-11-12T20:58:41Z</time>
      </trkpt>
      <trkpt lat="47.20079" lon="-1.66481">
        <ele>7</ele>
        <time>2023-11-12T20:59:08Z</time>
      </trkpt>
      <trkpt lat="47.20078" lon="-1.66452">
        <ele>7</ele>
        <time>2023-11-12T20:59:35Z</time>
      </trkpt>
      <trkpt lat="47.20069" lon="-1.66395">
        <ele>7</ele>
        <time>2023-11-12T21:00:28Z</time>
      </trkpt>
      <trkpt lat="47.20055" lon="-1.66376">
        <ele>7</ele>
        <time>2023-11-12T21:00:53Z</time>
      </trkpt>
      <trkpt lat="47.20036" lon="-1.66372">
        <ele>7</ele>
        <time>2023-11-12T21:01:19Z</time>
      </trkpt>
      <trkpt lat="47.20017" lon="-1.66373">
        <ele>6</ele>
        <time>2023-11-12T21:01:44Z</time>
      </trkpt>
      <trkpt lat="47.20001" lon="-1.66358">
        <ele>6</ele>
        <time>2023-11-12T21:02:09Z</time>
      </trkpt>
      <trkpt lat="47.20015" lon="-1.66341">
        <ele>6</ele>
        <time>2023-11-12T21:02:34Z</time>
      </trkpt>
      <trkpt lat="47.2002" lon="-1.66314">
        <ele>6</ele>
        <time>2023-11-12T21:02:59Z</time>
      </trkpt>
      <trkpt lat="47.20038" lon="-1.66316">
        <ele>6</ele>
        <time>2023-11-12T21:03:23Z</time>
      </trkpt>
      <trkpt lat="47.20057" lon="-1.66315">
        <ele>6</ele>
        <time>2023-11-12T21:03:48Z</time>
      </trkpt>
      <trkpt lat="47.20095" lon="-1.66308">
        <ele>7</ele>
        <time>2023-11-12T21:04:40Z</time>
      </trkpt>
      <trkpt lat="47.20129" lon="-1.6632">
        <ele>7</ele>
        <time>2023-11-12T21:05:26Z</time>
      </trkpt>
      <trkpt lat="47.20128" lon="-1.66284">
        <ele>7</ele>
        <time>2023-11-12T21:05:59Z</time>
      </trkpt>
      <trkpt lat="47.20147" lon="-1.66294">
        <ele>8</ele>
        <time>2023-11-12T21:06:26Z</time>
      </trkpt>
      <trkpt lat="47.20166" lon="-1.66286">
        <ele>8</ele>
        <time>2023-11-12T21:06:52Z</time>
      </trkpt>
      <trkpt lat="47.20184" lon="-1.66278">
        <ele>8</ele>
        <time>2023-11-12T21:07:17Z</time>
      </trkpt>
      <trkpt lat="47.20202" lon="-1.66267">
        <ele>8</ele>
        <time>2023-11-12T21:07:43Z</time>
      </trkpt>
      <trkpt lat="47.2022" lon="-1.66253">
        <ele>8</ele>
        <time>2023-11-12T21:08:10Z</time>
      </trkpt>
      <trkpt lat="47.20236" lon="-1.66235">
        <ele>8</ele>
        <time>2023-11-12T21:08:37Z</time>
      </trkpt>
      <trkpt lat="47.20249" lon="-1.66214">
        <ele>9</ele>
        <time>2023-11-12T21:09:03Z</time>
      </trkpt>
      <trkpt lat="47.20259" lon="-1.6619">
        <ele>9</ele>
        <time>2023-11-12T21:09:29Z</time>
      </trkpt>
      <trkpt lat="47.20268" lon="-1.66164">
        <ele>10</ele>
        <time>2023-11-12T21:09:55Z</time>
      </trkpt>
      <trkpt lat="47.20277" lon="-1.66138">
        <ele>10</ele>
        <time>2023-11-12T21:10:22Z</time>
      </trkpt>
      <trkpt lat="47.20291" lon="-1.66088">
        <ele>10</ele>
        <time>2023-11-12T21:11:11Z</time>
      </trkpt>
      <trkpt lat="47.203" lon="-1.66062">
        <ele>10</ele>
        <time>2023-11-12T21:11:37Z</time>
      </trkpt>
      <trkpt lat="47.2032" lon="-1.65981">
        <ele>9</ele>
        <time>2023-11-12T21:12:55Z</time>
      </trkpt>
      <trkpt lat="47.20326" lon="-1.65955">
        <ele>9</ele>
        <time>2023-11-12T21:13:20Z</time>
      </trkpt>
      <trkpt lat="47.2033" lon="-1.65927">
        <ele>9</ele>
        <time>2023-11-12T21:13:46Z</time>
      </trkpt>
      <trkpt lat="47.20334" lon="-1.65898">
        <ele>9</ele>
        <time>2023-11-12T21:14:13Z</time>
      </trkpt>
      <trkpt lat="47.20332" lon="-1.65869">
        <ele>9</ele>
        <time>2023-11-12T21:14:39Z</time>
      </trkpt>
      <trkpt lat="47.20331" lon="-1.65841">
        <ele>8</ele>
        <time>2023-11-12T21:15:05Z</time>
      </trkpt>
      <trkpt lat="47.20329" lon="-1.65814">
        <ele>9</ele>
        <time>2023-11-12T21:15:29Z</time>
      </trkpt>
      <trkpt lat="47.20325" lon="-1.65788">
        <ele>9</ele>
        <time>2023-11-12T21:15:53Z</time>
      </trkpt>
      <trkpt lat="47.20322" lon="-1.65759">
        <ele>9</ele>
        <time>2023-11-12T21:16:20Z</time>
      </trkpt>
      <trkpt lat="47.20311" lon="-1.65703">
        <ele>9</ele>
        <time>2023-11-12T21:17:13Z</time>
      </trkpt>
      <trkpt lat="47.20306" lon="-1.65675">
        <ele>9</ele>
        <time>2023-11-12T21:17:39Z</time>
      </trkpt>
      <trkpt lat="47.203" lon="-1.6565">
        <ele>9</ele>
        <time>2023-11-12T21:18:03Z</time>
      </trkpt>
      <trkpt lat="47.20294" lon="-1.65623">
        <ele>9</ele>
        <time>2023-11-12T21:18:29Z</time>
      </trkpt>
      <trkpt lat="47.20291" lon="-1.65596">
        <ele>8</ele>
        <time>2023-11-12T21:18:54Z</time>
      </trkpt>
      <trkpt lat="47.2028" lon="-1.65543">
        <ele>8</ele>
        <time>2023-11-12T21:19:44Z</time>
      </trkpt>
      <trkpt lat="47.20276" lon="-1.65517">
        <ele>8</ele>
        <time>2023-11-12T21:20:08Z</time>
      </trkpt>
      <trkpt lat="47.20274" lon="-1.6549">
        <ele>8</ele>
        <time>2023-11-12T21:20:33Z</time>
      </trkpt>
      <trkpt lat="47.20267" lon="-1.65464">
        <ele>8</ele>
        <time>2023-11-12T21:20:58Z</time>
      </trkpt>
      <trkpt lat="47.20263" lon="-1.65437">
        <ele>8</ele>
        <time>2023-11-12T21:21:23Z</time>
      </trkpt>
      <trkpt lat="47.20258" lon="-1.65409">
        <ele>7</ele>
        <time>2023-11-12T21:21:49Z</time>
      </trkpt>
      <trkpt lat="47.20254" lon="-1.65382">
        <ele>7</ele>
        <time>2023-11-12T21:22:15Z</time>
      </trkpt>
      <trkpt lat="47.20252" lon="-1.65354">
        <ele>7</ele>
        <time>2023-11-12T21:22:40Z</time>
      </trkpt>
      <trkpt lat="47.20247" lon="-1.65325">
        <ele>7</ele>
        <time>2023-11-12T21:23:07Z</time>
      </trkpt>
      <trkpt lat="47.20243" lon="-1.65297">
        <ele>8</ele>
        <time>2023-11-12T21:23:33Z</time>
      </trkpt>
      <trkpt lat="47.20238" lon="-1.65271">
        <ele>8</ele>
        <time>2023-11-12T21:23:58Z</time>
      </trkpt>
      <trkpt lat="47.20233" lon="-1.65242">
        <ele>9</ele>
        <time>2023-11-12T21:24:25Z</time>
      </trkpt>
      <trkpt lat="47.20231" lon="-1.65213">
        <ele>8</ele>
        <time>2023-11-12T21:24:51Z</time>
      </trkpt>
      <trkpt lat="47.20226" lon="-1.65186">
        <ele>8</ele>
        <time>2023-11-12T21:25:17Z</time>
      </trkpt>
      <trkpt lat="47.2022" lon="-1.65158">
        <ele>8</ele>
        <time>2023-11-12T21:25:43Z</time>
      </trkpt>
      <trkpt lat="47.20215" lon="-1.65131">
        <ele>8</ele>
        <time>2023-11-12T21:26:09Z</time>
      </trkpt>
      <trkpt lat="47.20212" lon="-1.65104">
        <ele>8</ele>
        <time>2023-11-12T21:26:33Z</time>
      </trkpt>
      <trkpt lat="47.20209" lon="-1.65075">
        <ele>8</ele>
        <time>2023-11-12T21:27:00Z</time>
      </trkpt>
      <trkpt lat="47.20198" lon="-1.65017">
        <ele>7</ele>
        <time>2023-11-12T21:27:55Z</time>
      </trkpt>
      <trkpt lat="47.2019" lon="-1.6499">
        <ele>7</ele>
        <time>2023-11-12T21:28:21Z</time>
      </trkpt>
      <trkpt lat="47.20186" lon="-1.64963">
        <ele>7</ele>
        <time>2023-11-12T21:28:46Z</time>
      </trkpt>
      <trkpt lat="47.20182" lon="-1.64933">
        <ele>7</ele>
        <time>2023-11-12T21:29:14Z</time>
      </trkpt>
      <trkpt lat="47.20176" lon="-1.64906">
        <ele>8</ele>
        <time>2023-11-12T21:29:40Z</time>
      </trkpt>
      <trkpt lat="47.20171" lon="-1.64878">
        <ele>8</ele>
        <time>2023-11-12T21:30:06Z</time>
      </trkpt>
      <trkpt lat="47.20164" lon="-1.6485">
        <ele>8</ele>
        <time>2023-11-12T21:30:33Z</time>
      </trkpt>
      <trkpt lat="47.2016" lon="-1.64823">
        <ele>8</ele>
        <time>2023-11-12T21:30:58Z</time>
      </trkpt>
      <trkpt lat="47.20154" lon="-1.64794">
        <ele>8</ele>
        <time>2023-11-12T21:31:26Z</time>
      </trkpt>
      <trkpt lat="47.20148" lon="-1.64767">
        <ele>8</ele>
        <time>2023-11-12T21:31:51Z</time>
      </trkpt>
      <trkpt lat="47.20132" lon="-1.64688">
        <ele>7</ele>
        <time>2023-11-12T21:33:06Z</time>
      </trkpt>
      <trkpt lat="47.20132" lon="-1.64661">
        <ele>6</ele>
        <time>2023-11-12T21:33:31Z</time>
      </trkpt>
      <trkpt lat="47.2015" lon="-1.64648">
        <ele>4</ele>
        <time>2023-11-12T21:33:57Z</time>
      </trkpt>
      <trkpt lat="47.20167" lon="-1.64637">
        <ele>2</ele>
        <time>2023-11-12T21:34:22Z</time>
      </trkpt>
      <trkpt lat="47.20186" lon="-1.64624">
        <ele>2</ele>
        <time>2023-11-12T21:34:50Z</time>
      </trkpt>
      <trkpt lat="47.20202" lon="-1.6461">
        <ele>2</ele>
        <time>2023-11-12T21:35:15Z</time>
      </trkpt>
      <trkpt lat="47.20219" lon="-1.64601">
        <ele>1</ele>
        <time>2023-11-12T21:35:39Z</time>
      </trkpt>
      <trkpt lat="47.2023" lon="-1.64579">
        <ele>1</ele>
        <time>2023-11-12T21:36:04Z</time>
      </trkpt>
      <trkpt lat="47.20236" lon="-1.64554">
        <ele>1</ele>
        <time>2023-11-12T21:36:28Z</time>
      </trkpt>
      <trkpt lat="47.20244" lon="-1.64527">
        <ele>2</ele>
        <time>2023-11-12T21:36:55Z</time>
      </trkpt>
      <trkpt lat="47.20253" lon="-1.645">
        <ele>2</ele>
        <time>2023-11-12T21:37:22Z</time>
      </trkpt>
      <trkpt lat="47.20261" lon="-1.64476">
        <ele>2</ele>
        <time>2023-11-12T21:37:46Z</time>
      </trkpt>
      <trkpt lat="47.20267" lon="-1.64446">
        <ele>2</ele>
        <time>2023-11-12T21:38:14Z</time>
      </trkpt>
      <trkpt lat="47.20275" lon="-1.6442">
        <ele>3</ele>
        <time>2023-11-12T21:38:40Z</time>
      </trkpt>
      <trkpt lat="47.20282" lon="-1.64392">
        <ele>3</ele>
        <time>2023-11-12T21:39:07Z</time>
      </trkpt>
      <trkpt lat="47.20288" lon="-1.64364">
        <ele>3</ele>
        <time>2023-11-12T21:39:34Z</time>
      </trkpt>
      <trkpt lat="47.20297" lon="-1.64337">
        <ele>4</ele>
        <time>2023-11-12T21:40:01Z</time>
      </trkpt>
      <trkpt lat="47.20306" lon="-1.6431">
        <ele>4</ele>
        <time>2023-11-12T21:40:28Z</time>
      </trkpt>
      <trkpt lat="47.20319" lon="-1.64288">
        <ele>4</ele>
        <time>2023-11-12T21:40:55Z</time>
      </trkpt>
      <trkpt lat="47.20335" lon="-1.64277">
        <ele>4</ele>
        <time>2023-11-12T21:41:18Z</time>
      </trkpt>
      <trkpt lat="47.20376" lon="-1.64268">
        <ele>8</ele>
        <time>2023-11-12T21:42:14Z</time>
      </trkpt>
      <trkpt lat="47.20396" lon="-1.64264">
        <ele>10</ele>
        <time>2023-11-12T21:42:41Z</time>
      </trkpt>
      <trkpt lat="47.20401" lon="-1.64238">
        <ele>10</ele>
        <time>2023-11-12T21:43:05Z</time>
      </trkpt>
      <trkpt lat="47.20398" lon="-1.64209">
        <ele>8</ele>
        <time>2023-11-12T21:43:32Z</time>
      </trkpt>
      <trkpt lat="47.20397" lon="-1.64179">
        <ele>6</ele>
        <time>2023-11-12T21:43:59Z</time>
      </trkpt>
      <trkpt lat="47.20406" lon="-1.64152">
        <ele>5</ele>
        <time>2023-11-12T21:44:26Z</time>
      </trkpt>
      <trkpt lat="47.2042" lon="-1.64135">
        <ele>6</ele>
        <time>2023-11-12T21:44:51Z</time>
      </trkpt>
      <trkpt lat="47.20431" lon="-1.64112">
        <ele>6</ele>
        <time>2023-11-12T21:45:16Z</time>
      </trkpt>
      <trkpt lat="47.20442" lon="-1.64087">
        <ele>6</ele>
        <time>2023-11-12T21:45:43Z</time>
      </trkpt>
      <trkpt lat="47.20452" lon="-1.64063">
        <ele>6</ele>
        <time>2023-11-12T21:46:09Z</time>
      </trkpt>
      <trkpt lat="47.20465" lon="-1.64045">
        <ele>6</ele>
        <time>2023-11-12T21:46:32Z</time>
      </trkpt>
      <trkpt lat="47.20477" lon="-1.64025">
        <ele>6</ele>
        <time>2023-11-12T21:46:57Z</time>
      </trkpt>
      <trkpt lat="47.20496" lon="-1.64018">
        <ele>7</ele>
        <time>2023-11-12T21:47:23Z</time>
      </trkpt>
      <trkpt lat="47.20517" lon="-1.64014">
        <ele>8</ele>
        <time>2023-11-12T21:47:51Z</time>
      </trkpt>
      <trkpt lat="47.20535" lon="-1.64008">
        <ele>9</ele>
        <time>2023-11-12T21:48:16Z</time>
      </trkpt>
      <trkpt lat="47.20554" lon="-1.64005">
        <ele>10</ele>
        <time>2023-11-12T21:48:41Z</time>
      </trkpt>
      <trkpt lat="47.20572" lon="-1.64">
        <ele>10</ele>
        <time>2023-11-12T21:49:06Z</time>
      </trkpt>
      <trkpt lat="47.2059" lon="-1.6399">
        <ele>11</ele>
        <time>2023-11-12T21:49:31Z</time>
      </trkpt>
      <trkpt lat="47.20607" lon="-1.63977">
        <ele>11</ele>
        <time>2023-11-12T21:49:57Z</time>
      </trkpt>
      <trkpt lat="47.20624" lon="-1.63964">
        <ele>12</ele>
        <time>2023-11-12T21:50:22Z</time>
      </trkpt>
      <trkpt lat="47.20639" lon="-1.63945">
        <ele>12</ele>
        <time>2023-11-12T21:50:49Z</time>
      </trkpt>
      <trkpt lat="47.20651" lon="-1.63925">
        <ele>12</ele>
        <time>2023-11-12T21:51:13Z</time>
      </trkpt>
      <trkpt lat="47.2064" lon="-1.63949">
        <ele>12</ele>
        <time>2023-11-12T21:51:39Z</time>
      </trkpt>
      <trkpt lat="47.20626" lon="-1.63966">
        <ele>12</ele>
        <time>2023-11-12T21:52:03Z</time>
      </trkpt>
      <trkpt lat="47.20646" lon="-1.63962">
        <ele>12</ele>
        <time>2023-11-12T21:52:30Z</time>
      </trkpt>
      <trkpt lat="47.20665" lon="-1.63953">
        <ele>13</ele>
        <time>2023-11-12T21:52:57Z</time>
      </trkpt>
      <trkpt lat="47.20676" lon="-1.63932">
        <ele>13</ele>
        <time>2023-11-12T21:53:21Z</time>
      </trkpt>
      <trkpt lat="47.20676" lon="-1.63901">
        <ele>12</ele>
        <time>2023-11-12T21:53:49Z</time>
      </trkpt>
      <trkpt lat="47.20672" lon="-1.63874">
        <ele>11</ele>
        <time>2023-11-12T21:54:14Z</time>
      </trkpt>
      <trkpt lat="47.2067" lon="-1.63847">
        <ele>10</ele>
        <time>2023-11-12T21:54:39Z</time>
      </trkpt>
      <trkpt lat="47.20676" lon="-1.63822">
        <ele>9</ele>
        <time>2023-11-12T21:55:03Z</time>
      </trkpt>
      <trkpt lat="47.20686" lon="-1.63796">
        <ele>8</ele>
        <time>2023-11-12T21:55:30Z</time>
      </trkpt>
      <trkpt lat="47.20699" lon="-1.63776">
        <ele>8</ele>
        <time>2023-11-12T21:55:55Z</time>
      </trkpt>
      <trkpt lat="47.20716" lon="-1.63764">
        <ele>8</ele>
        <time>2023-11-12T21:56:20Z</time>
      </trkpt>
      <trkpt lat="47.20737" lon="-1.63761">
        <ele>8</ele>
        <time>2023-11-12T21:56:48Z</time>
      </trkpt>
      <trkpt lat="47.20755" lon="-1.63759">
        <ele>8</ele>
        <time>2023-11-12T21:57:12Z</time>
      </trkpt>
      <trkpt lat="47.20773" lon="-1.63749">
        <ele>8</ele>
        <time>2023-11-12T21:57:38Z</time>
      </trkpt>
      <trkpt lat="47.20789" lon="-1.63737">
        <ele>7</ele>
        <time>2023-11-12T21:58:02Z</time>
      </trkpt>
      <trkpt lat="47.20787" lon="-1.63705">
        <ele>6</ele>
        <time>2023-11-12T21:58:31Z</time>
      </trkpt>
      <trkpt lat="47.20783" lon="-1.63677">
        <ele>6</ele>
        <time>2023-11-12T21:58:57Z</time>
      </trkpt>
      <trkpt lat="47.20795" lon="-1.63656">
        <ele>6</ele>
        <time>2023-11-12T21:59:22Z</time>
      </trkpt>
      <trkpt lat="47.20813" lon="-1.63651">
        <ele>6</ele>
        <time>2023-11-12T21:59:46Z</time>
      </trkpt>
      <trkpt lat="47.20827" lon="-1.63631">
        <ele>7</ele>
        <time>2023-11-12T22:00:12Z</time>
      </trkpt>
      <trkpt lat="47.20843" lon="-1.63616">
        <ele>7</ele>
        <time>2023-11-12T22:00:38Z</time>
      </trkpt>
      <trkpt lat="47.2086" lon="-1.63604">
        <ele>7</ele>
        <time>2023-11-12T22:01:03Z</time>
      </trkpt>
      <trkpt lat="47.20874" lon="-1.63585">
        <ele>8</ele>
        <time>2023-11-12T22:01:28Z</time>
      </trkpt>
      <trkpt lat="47.20891" lon="-1.63567">
        <ele>9</ele>
        <time>2023-11-12T22:01:56Z</time>
      </trkpt>
      <trkpt lat="47.20905" lon="-1.63548">
        <ele>10</ele>
        <time>2023-11-12T22:02:22Z</time>
      </trkpt>
      <trkpt lat="47.20922" lon="-1.63533">
        <ele>11</ele>
        <time>2023-11-12T22:02:48Z</time>
      </trkpt>
      <trkpt lat="47.20961" lon="-1.6352">
        <ele>10</ele>
        <time>2023-11-12T22:03:42Z</time>
      </trkpt>
      <trkpt lat="47.20979" lon="-1.63511">
        <ele>10</ele>
        <time>2023-11-12T22:04:07Z</time>
      </trkpt>
      <trkpt lat="47.20992" lon="-1.63492">
        <ele>11</ele>
        <time>2023-11-12T22:04:31Z</time>
      </trkpt>
      <trkpt lat="47.21006" lon="-1.63474">
        <ele>12</ele>
        <time>2023-11-12T22:04:56Z</time>
      </trkpt>
      <trkpt lat="47.21019" lon="-1.63451">
        <ele>13</ele>
        <time>2023-11-12T22:05:23Z</time>
        <extensions>
          <visugpx:TrkExtension xmlns:visugpx="https://www.visugpx.com/editgpx/">
            <visugpx:node>1</visugpx:node>
            </visugpx:TrkExtension>
        </extensions>
      </trkpt>
    </trkseg>
  </trk>
</gpx>